<?xml version="1.0" encoding="UTF-8" standalone="no" ?><gpx xmlns="http://www.topografix.com/GPX/1/1" xmlns:gpxx="http://www.garmin.com/xmlschemas/GpxExtensions/v3" xmlns:wptx1="http://www.garmin.com/xmlschemas/WaypointExtension/v1" xmlns:gpxtpx="http://www.garmin.com/xmlschemas/TrackPointExtension/v1" creator="GuideVTT.com" version="1.1" xmlns:xsi="http://www.w3.org/2001/XMLSchema-instance" xsi:schemaLocation="http://www.topografix.com/GPX/1/1 http://www.topografix.com/GPX/1/1/gpx.xsd http://www.garmin.com/xmlschemas/GpxExtensions/v3 http://www8.garmin.com/xmlschemas/GpxExtensionsv3.xsd http://www.garmin.com/xmlschemas/WaypointExtension/v1 http://www8.garmin.com/xmlschemas/WaypointExtensionv1.xsd http://www.garmin.com/xmlschemas/TrackPointExtension/v1 http://www.garmin.com/xmlschemas/TrackPointExtensionv1.xsd">
<metadata><link href="http://www.garmin.com"><text>Garmin International</text></link><time>2013-06-22T15:13:50Z</time></metadata>
<trk><name>raquette_du_24_janvier_2009_.gpx</name><extensions><gpxx:TrackExtension><gpxx:DisplayColor>Cyan</gpxx:DisplayColor></gpxx:TrackExtension></extensions><trkseg>
<trkpt lat="48.11447" lon="340.187463788361"><ele></ele><time>2014-6-1T21:19:21Z</time></trkpt>
<trkpt lat="48.11452" lon="340.770009547859"><ele></ele><time>2014-6-1T21:19:24Z</time></trkpt>
<trkpt lat="48.11455" lon="341.11955091238"><ele></ele><time>2014-6-1T21:19:27Z</time></trkpt>
<trkpt lat="48.11458" lon="341.469069096473"><ele></ele><time>2014-6-1T21:19:30Z</time></trkpt>
<trkpt lat="48.1146" lon="341.818587283396"><ele></ele><time>2014-6-1T21:19:33Z</time></trkpt>
<trkpt lat="48.1146" lon="342.168128646502"><ele></ele><time>2014-6-1T21:19:36Z</time></trkpt>
<trkpt lat="48.1146" lon="342.575868959463"><ele></ele><time>2014-6-1T21:19:39Z</time></trkpt>
<trkpt lat="48.1146" lon="342.98367880522"><ele></ele><time>2014-6-1T21:19:42Z</time></trkpt>
<trkpt lat="48.1146" lon="343.333220168327"><ele></ele><time>2014-6-1T21:19:45Z</time></trkpt>
<trkpt lat="48.11458" lon="343.780570997139"><ele></ele><time>2014-6-1T21:19:48Z</time></trkpt>
<trkpt lat="48.11456" lon="343.813506364619"><ele></ele><time>2014-6-1T21:19:51Z</time></trkpt>
<trkpt lat="48.11454" lon="343.956790278599"><ele></ele><time>2014-6-1T21:19:54Z</time></trkpt>
<trkpt lat="48.11452" lon="344.504337864348"><ele></ele><time>2014-6-1T21:19:57Z</time></trkpt>
<trkpt lat="48.1145" lon="345.261526831437"><ele></ele><time>2014-6-1T21:20:0Z</time></trkpt>
<trkpt lat="48.11449" lon="345.999432035151"><ele></ele><time>2014-6-1T21:20:3Z</time></trkpt>
<trkpt lat="48.1145" lon="346.310104565559"><ele></ele><time>2014-6-1T21:20:6Z</time></trkpt>
<trkpt lat="48.1145" lon="346.601377446015"><ele></ele><time>2014-6-1T21:20:9Z</time></trkpt>
<trkpt lat="48.11451" lon="346.737314061267"><ele></ele><time>2014-6-1T21:20:12Z</time></trkpt>
<trkpt lat="48.11452" lon="347.048009769274"><ele></ele><time>2014-6-1T21:20:15Z</time></trkpt>
<trkpt lat="48.11453" lon="347.300436994629"><ele></ele><time>2014-6-1T21:20:18Z</time></trkpt>
<trkpt lat="48.11455" lon="347.514018564885"><ele></ele><time>2014-6-1T21:20:21Z</time></trkpt>
<trkpt lat="48.11456" lon="347.708223662788"><ele></ele><time>2014-6-1T21:20:24Z</time></trkpt>
<trkpt lat="48.11458" lon="347.863559927992"><ele></ele><time>2014-6-1T21:20:27Z</time></trkpt>
<trkpt lat="48.11458" lon="348.096587503396"><ele></ele><time>2014-6-1T21:20:30Z</time></trkpt>
<trkpt lat="48.1146" lon="348.251900591001"><ele></ele><time>2014-6-1T21:20:33Z</time></trkpt>
<trkpt lat="48.11462" lon="348.465528517869"><ele></ele><time>2014-6-1T21:20:36Z</time></trkpt>
<trkpt lat="48.11464" lon="348.706343764957"><ele></ele><time>2014-6-1T21:20:39Z</time></trkpt>
<trkpt lat="48.11467" lon="348.792610786606"><ele></ele><time>2014-6-1T21:20:42Z</time></trkpt>
<trkpt lat="48.11468" lon="349.228280105769"><ele></ele><time>2014-6-1T21:20:45Z</time></trkpt>
<trkpt lat="48.1147" lon="349.577798291277"><ele></ele><time>2014-6-1T21:20:48Z</time></trkpt>
<trkpt lat="48.11471" lon="350.043807085474"><ele></ele><time>2014-6-1T21:20:51Z</time></trkpt>
<trkpt lat="48.11472" lon="350.509862237698"><ele></ele><time>2014-6-1T21:20:54Z</time></trkpt>
<trkpt lat="48.11474" lon="350.859403600804"><ele></ele><time>2014-6-1T21:20:57Z</time></trkpt>
<trkpt lat="48.11476" lon="351.325435574014"><ele></ele><time>2014-6-1T21:21:0Z</time></trkpt>
<trkpt lat="48.11476" lon="351.67497693712"><ele></ele><time>2014-6-1T21:21:3Z</time></trkpt>
<trkpt lat="48.11476" lon="351.791467547224"><ele></ele><time>2014-6-1T21:21:6Z</time></trkpt>
<trkpt lat="48.11476" lon="351.907981334926"><ele></ele><time>2014-6-1T21:21:9Z</time></trkpt>
<trkpt lat="48.11476" lon="352.02447194503"><ele></ele><time>2014-6-1T21:21:12Z</time></trkpt>
<trkpt lat="48.11477" lon="352.140985732732"><ele></ele><time>2014-6-1T21:21:15Z</time></trkpt>
<trkpt lat="48.11477" lon="352.49050391824"><ele></ele><time>2014-6-1T21:21:18Z</time></trkpt>
<trkpt lat="48.11478" lon="352.840022103748"><ele></ele><time>2014-6-1T21:21:21Z</time></trkpt>
<trkpt lat="48.11479" lon="353.284336667155"><ele></ele><time>2014-6-1T21:21:24Z</time></trkpt>
<trkpt lat="48.11479" lon="353.98339621577"><ele></ele><time>2014-6-1T21:21:27Z</time></trkpt>
<trkpt lat="48.1148" lon="354.158178487537"><ele></ele><time>2014-6-1T21:21:30Z</time></trkpt>
<trkpt lat="48.1148" lon="354.332937578876"><ele></ele><time>2014-6-1T21:21:33Z</time></trkpt>
<trkpt lat="48.11479" lon="354.857214857138"><ele></ele><time>2014-6-1T21:21:36Z</time></trkpt>
<trkpt lat="48.11477" lon="355.556274405752"><ele></ele><time>2014-6-1T21:21:39Z</time></trkpt>
<trkpt lat="48.11475" lon="356.403207032851"><ele></ele><time>2014-6-1T21:21:42Z</time></trkpt>
<trkpt lat="48.11472" lon="357.335270979271"><ele></ele><time>2014-6-1T21:21:45Z</time></trkpt>
<trkpt lat="48.11469" lon="358.329265468906"><ele></ele><time>2014-6-1T21:21:48Z</time></trkpt>
<trkpt lat="48.11467" lon="359.449624225609"><ele></ele><time>2014-6-1T21:21:51Z</time></trkpt>
<trkpt lat="48.11465" lon="360.847720145239"><ele></ele><time>2014-6-1T21:21:54Z</time></trkpt>
<trkpt lat="48.11463" lon="361.714052422289"><ele></ele><time>2014-6-1T21:21:57Z</time></trkpt>
<trkpt lat="48.11461" lon="362.488740474836"><ele></ele><time>2014-6-1T21:22:0Z</time></trkpt>
<trkpt lat="48.1146" lon="363.158642604527"><ele></ele><time>2014-6-1T21:22:3Z</time></trkpt>
<trkpt lat="48.11459" lon="363.504684150259"><ele></ele><time>2014-6-1T21:22:6Z</time></trkpt>
<trkpt lat="48.11459" lon="363.737688548065"><ele></ele><time>2014-6-1T21:22:9Z</time></trkpt>
<trkpt lat="48.1146" lon="363.883336577092"><ele></ele><time>2014-6-1T21:22:12Z</time></trkpt>
<trkpt lat="48.1146" lon="364.116340974898"><ele></ele><time>2014-6-1T21:22:15Z</time></trkpt>
<trkpt lat="48.1146" lon="364.442287542722"><ele></ele><time>2014-6-1T21:22:18Z</time></trkpt>
<trkpt lat="48.1146" lon="364.675315118127"><ele></ele><time>2014-6-1T21:22:21Z</time></trkpt>
<trkpt lat="48.1146" lon="364.791828905829"><ele></ele><time>2014-6-1T21:22:24Z</time></trkpt>
<trkpt lat="48.11461" lon="365.024833303635"><ele></ele><time>2014-6-1T21:22:27Z</time></trkpt>
<trkpt lat="48.11461" lon="365.257860879039"><ele></ele><time>2014-6-1T21:22:30Z</time></trkpt>
<trkpt lat="48.11462" lon="365.257860879039"><ele></ele><time>2014-6-1T21:22:33Z</time></trkpt>
<trkpt lat="48.11463" lon="365.141370268935"><ele></ele><time>2014-6-1T21:22:36Z</time></trkpt>
<trkpt lat="48.11465" lon="365.141347091337"><ele></ele><time>2014-6-1T21:22:39Z</time></trkpt>
<trkpt lat="48.11466" lon="365.257860877624"><ele></ele><time>2014-6-1T21:22:42Z</time></trkpt>
<trkpt lat="48.11467" lon="365.607379064547"><ele></ele><time>2014-6-1T21:22:45Z</time></trkpt>
<trkpt lat="48.11467" lon="366.073411037757"><ele></ele><time>2014-6-1T21:22:48Z</time></trkpt>
<trkpt lat="48.11466" lon="366.772470586371"><ele></ele><time>2014-6-1T21:22:51Z</time></trkpt>
<trkpt lat="48.11464" lon="367.471506957387"><ele></ele><time>2014-6-1T21:22:54Z</time></trkpt>
<trkpt lat="48.11463" lon="368.062072167383"><ele></ele><time>2014-6-1T21:22:57Z</time></trkpt>
<trkpt lat="48.1146" lon="368.481331746803"><ele></ele><time>2014-6-1T21:23:0Z</time></trkpt>
<trkpt lat="48.11458" lon="368.772604627259"><ele></ele><time>2014-6-1T21:23:3Z</time></trkpt>
<trkpt lat="48.11455" lon="369.03474326639"><ele></ele><time>2014-6-1T21:23:6Z</time></trkpt>
<trkpt lat="48.11453" lon="369.326039324445"><ele></ele><time>2014-6-1T21:23:9Z</time></trkpt>
<trkpt lat="48.11452" lon="369.646446446226"><ele></ele><time>2014-6-1T21:23:12Z</time></trkpt>
<trkpt lat="48.11451" lon="369.966830388994"><ele></ele><time>2014-6-1T21:23:15Z</time></trkpt>
<trkpt lat="48.11451" lon="370.25810326945"><ele></ele><time>2014-6-1T21:23:18Z</time></trkpt>
<trkpt lat="48.1145" lon="370.520218732397"><ele></ele><time>2014-6-1T21:23:21Z</time></trkpt>
<trkpt lat="48.11449" lon="370.840625854178"><ele></ele><time>2014-6-1T21:23:24Z</time></trkpt>
<trkpt lat="48.11448" lon="371.102764493309"><ele></ele><time>2014-6-1T21:23:27Z</time></trkpt>
<trkpt lat="48.11451" lon="371.332106830551"><ele></ele><time>2014-6-1T21:23:30Z</time></trkpt>
<trkpt lat="48.11457" lon="371.157347737797"><ele></ele><time>2014-6-1T21:23:33Z</time></trkpt>
<trkpt lat="48.11461" lon="371.040833950095"><ele></ele><time>2014-6-1T21:23:36Z</time></trkpt>
<trkpt lat="48.11465" lon="370.930045029224"><ele></ele><time>2014-6-1T21:23:39Z</time></trkpt>
<trkpt lat="48.1147" lon="371.104827299577"><ele></ele><time>2014-6-1T21:23:42Z</time></trkpt>
<trkpt lat="48.11474" lon="370.648761693725"><ele></ele><time>2014-6-1T21:23:45Z</time></trkpt>
<trkpt lat="48.11481" lon="369.833211535007"><ele></ele><time>2014-6-1T21:23:48Z</time></trkpt>
<trkpt lat="48.11485" lon="369.367179561797"><ele></ele><time>2014-6-1T21:23:51Z</time></trkpt>
<trkpt lat="48.11488" lon="369.017661376289"><ele></ele><time>2014-6-1T21:23:54Z</time></trkpt>
<trkpt lat="48.11491" lon="368.668120013183"><ele></ele><time>2014-6-1T21:23:57Z</time></trkpt>
<trkpt lat="48.11494" lon="368.254515767799"><ele></ele><time>2014-6-1T21:24:0Z</time></trkpt>
<trkpt lat="48.11498" lon="367.211894676493"><ele></ele><time>2014-6-1T21:24:3Z</time></trkpt>
<trkpt lat="48.11501" lon="366.163293764773"><ele></ele><time>2014-6-1T21:24:6Z</time></trkpt>
<trkpt lat="48.11504" lon="365.172984513301"><ele></ele><time>2014-6-1T21:24:9Z</time></trkpt>
<trkpt lat="48.11508" lon="363.879720871724"><ele></ele><time>2014-6-1T21:24:12Z</time></trkpt>
<trkpt lat="48.11511" lon="362.706308592036"><ele></ele><time>2014-6-1T21:24:15Z</time></trkpt>
<trkpt lat="48.11515" lon="361.141774337516"><ele></ele><time>2014-6-1T21:24:18Z</time></trkpt>
<trkpt lat="48.11519" lon="359.469047053159"><ele></ele><time>2014-6-1T21:24:21Z</time></trkpt>
<trkpt lat="48.11523" lon="357.904489621041"><ele></ele><time>2014-6-1T21:24:24Z</time></trkpt>
<trkpt lat="48.11526" lon="356.73110051895"><ele></ele><time>2014-6-1T21:24:27Z</time></trkpt>
<trkpt lat="48.11529" lon="355.341302179586"><ele></ele><time>2014-6-1T21:24:30Z</time></trkpt>
<trkpt lat="48.11533" lon="353.135721904104"><ele></ele><time>2014-6-1T21:24:33Z</time></trkpt>
<trkpt lat="48.11532" lon="351.358950381457"><ele></ele><time>2014-6-1T21:24:36Z</time></trkpt>
<trkpt lat="48.11528" lon="350.647676238429"><ele></ele><time>2014-6-1T21:24:39Z</time></trkpt>
<trkpt lat="48.11521" lon="350.569869040236"><ele></ele><time>2014-6-1T21:24:42Z</time></trkpt>
<trkpt lat="48.11516" lon="350.562683983284"><ele></ele><time>2014-6-1T21:24:45Z</time></trkpt>
<trkpt lat="48.11511" lon="350.498852878406"><ele></ele><time>2014-6-1T21:24:48Z</time></trkpt>
<trkpt lat="48.11506" lon="349.999537873738"><ele></ele><time>2014-6-1T21:24:51Z</time></trkpt>
<trkpt lat="48.11499" lon="349.583430447715"><ele></ele><time>2014-6-1T21:24:54Z</time></trkpt>
<trkpt lat="48.11495" lon="349.325440598717"><ele></ele><time>2014-6-1T21:24:57Z</time></trkpt>
<trkpt lat="48.11491" lon="348.92602104362"><ele></ele><time>2014-6-1T21:25:0Z</time></trkpt>
<trkpt lat="48.11486" lon="348.170060490668"><ele></ele><time>2014-6-1T21:25:3Z</time></trkpt>
<trkpt lat="48.11482" lon="347.4127788146"><ele></ele><time>2014-6-1T21:25:6Z</time></trkpt>
<trkpt lat="48.11476" lon="346.713719265986"><ele></ele><time>2014-6-1T21:25:9Z</time></trkpt>
<trkpt lat="48.1147" lon="346.385872135083"><ele></ele><time>2014-6-1T21:25:12Z</time></trkpt>
<trkpt lat="48.11465" lon="345.774192132846"><ele></ele><time>2014-6-1T21:25:15Z</time></trkpt>
<trkpt lat="48.11461" lon="345.163392877937"><ele></ele><time>2014-6-1T21:25:18Z</time></trkpt>
<trkpt lat="48.1146" lon="345.279883489455"><ele></ele><time>2014-6-1T21:25:21Z</time></trkpt>
<trkpt lat="48.11461" lon="345.185365242738"><ele></ele><time>2014-6-1T21:25:24Z</time></trkpt>
<trkpt lat="48.11462" lon="345.622286152221"><ele></ele><time>2014-6-1T21:25:27Z</time></trkpt>
<trkpt lat="48.11463" lon="346.32702421247"><ele></ele><time>2014-6-1T21:25:30Z</time></trkpt>
<trkpt lat="48.11461" lon="346.816465560174"><ele></ele><time>2014-6-1T21:25:33Z</time></trkpt>
<trkpt lat="48.11459" lon="347.340789193633"><ele></ele><time>2014-6-1T21:25:36Z</time></trkpt>
<trkpt lat="48.11456" lon="347.89420071322"><ele></ele><time>2014-6-1T21:25:39Z</time></trkpt>
<trkpt lat="48.11455" lon="348.272876317651"><ele></ele><time>2014-6-1T21:25:42Z</time></trkpt>
<trkpt lat="48.11453" lon="348.680639808211"><ele></ele><time>2014-6-1T21:25:45Z</time></trkpt>
<trkpt lat="48.11452" lon="349.065642897035"><ele></ele><time>2014-6-1T21:25:48Z</time></trkpt>
<trkpt lat="48.11451" lon="349.473429566608"><ele></ele><time>2014-6-1T21:25:51Z</time></trkpt>
<trkpt lat="48.1145" lon="349.881216233352"><ele></ele><time>2014-6-1T21:25:54Z</time></trkpt>
<trkpt lat="48.11448" lon="350.172489113808"><ele></ele><time>2014-6-1T21:25:57Z</time></trkpt>
<trkpt lat="48.11446" lon="350.463761994264"><ele></ele><time>2014-6-1T21:26:0Z</time></trkpt>
<trkpt lat="48.11444" lon="350.75503487472"><ele></ele><time>2014-6-1T21:26:3Z</time></trkpt>
<trkpt lat="48.11441" lon="351.104553060228"><ele></ele><time>2014-6-1T21:26:6Z</time></trkpt>
<trkpt lat="48.11439" lon="351.360480102959"><ele></ele><time>2014-6-1T21:26:9Z</time></trkpt>
<trkpt lat="48.11437" lon="351.506081776789"><ele></ele><time>2014-6-1T21:26:12Z</time></trkpt>
<trkpt lat="48.11435" lon="351.651706628218"><ele></ele><time>2014-6-1T21:26:15Z</time></trkpt>
<trkpt lat="48.11433" lon="351.651706628218"><ele></ele><time>2014-6-1T21:26:18Z</time></trkpt>
<trkpt lat="48.1143" lon="351.651729805816"><ele></ele><time>2014-6-1T21:26:21Z</time></trkpt>
<trkpt lat="48.11428" lon="351.651729805816"><ele></ele><time>2014-6-1T21:26:24Z</time></trkpt>
<trkpt lat="48.11424" lon="351.797354657245"><ele></ele><time>2014-6-1T21:26:27Z</time></trkpt>
<trkpt lat="48.1142" lon="352.088627537701"><ele></ele><time>2014-6-1T21:26:30Z</time></trkpt>
<trkpt lat="48.11416" lon="352.379900418157"><ele></ele><time>2014-6-1T21:26:33Z</time></trkpt>
<trkpt lat="48.11412" lon="352.58761805599"><ele></ele><time>2014-6-1T21:26:36Z</time></trkpt>
<trkpt lat="48.11409" lon="352.969074970828"><ele></ele><time>2014-6-1T21:26:39Z</time></trkpt>
<trkpt lat="48.11407" lon="353.212393401385"><ele></ele><time>2014-6-1T21:26:42Z</time></trkpt>
<trkpt lat="48.11404" lon="353.585923578948"><ele></ele><time>2014-6-1T21:26:45Z</time></trkpt>
<trkpt lat="48.11402" lon="354.197603581185"><ele></ele><time>2014-6-1T21:26:48Z</time></trkpt>
<trkpt lat="48.114" lon="354.561677298556"><ele></ele><time>2014-6-1T21:26:51Z</time></trkpt>
<trkpt lat="48.11398" lon="355.420940408061"><ele></ele><time>2014-6-1T21:26:54Z</time></trkpt>
<trkpt lat="48.11396" lon="355.756181192888"><ele></ele><time>2014-6-1T21:26:57Z</time></trkpt>
<trkpt lat="48.11395" lon="355.86539403706"><ele></ele><time>2014-6-1T21:27:0Z</time></trkpt>
<trkpt lat="48.11395" lon="356.229514109628"><ele></ele><time>2014-6-1T21:27:3Z</time></trkpt>
<trkpt lat="48.11394" lon="356.520763812486"><ele></ele><time>2014-6-1T21:27:6Z</time></trkpt>
<trkpt lat="48.11393" lon="356.630023013269"><ele></ele><time>2014-6-1T21:27:9Z</time></trkpt>
<trkpt lat="48.11392" lon="356.739235856027"><ele></ele><time>2014-6-1T21:27:12Z</time></trkpt>
<trkpt lat="48.11391" lon="357.030485558884"><ele></ele><time>2014-6-1T21:27:15Z</time></trkpt>
<trkpt lat="48.1139" lon="357.139721580655"><ele></ele><time>2014-6-1T21:27:18Z</time></trkpt>
<trkpt lat="48.11388" lon="356.994096729226"><ele></ele><time>2014-6-1T21:27:21Z</time></trkpt>
<trkpt lat="48.11387" lon="357.103309573398"><ele></ele><time>2014-6-1T21:27:24Z</time></trkpt>
<trkpt lat="48.11386" lon="357.212545595168"><ele></ele><time>2014-6-1T21:27:27Z</time></trkpt>
<trkpt lat="48.11386" lon="357.394582453854"><ele></ele><time>2014-6-1T21:27:30Z</time></trkpt>
<trkpt lat="48.11386" lon="357.758656171225"><ele></ele><time>2014-6-1T21:27:33Z</time></trkpt>
<trkpt lat="48.11387" lon="358.195553904525"><ele></ele><time>2014-6-1T21:27:36Z</time></trkpt>
<trkpt lat="48.11388" lon="358.450437953908"><ele></ele><time>2014-6-1T21:27:39Z</time></trkpt>
<trkpt lat="48.11388" lon="358.632497990192"><ele></ele><time>2014-6-1T21:27:42Z</time></trkpt>
<trkpt lat="48.11387" lon="358.92374769305"><ele></ele><time>2014-6-1T21:27:45Z</time></trkpt>
<trkpt lat="48.11387" lon="359.105784551735"><ele></ele><time>2014-6-1T21:27:48Z</time></trkpt>
<trkpt lat="48.11386" lon="359.397057432191"><ele></ele><time>2014-6-1T21:27:51Z</time></trkpt>
<trkpt lat="48.11385" lon="359.688353490246"><ele></ele><time>2014-6-1T21:27:54Z</time></trkpt>
<trkpt lat="48.11384" lon="361.81037852169"><ele></ele><time>2014-6-1T21:27:57Z</time></trkpt>
<trkpt lat="48.11386" lon="363.61095343942"><ele></ele><time>2014-6-1T21:28:0Z</time></trkpt>
<trkpt lat="48.11389" lon="365.676355597708"><ele></ele><time>2014-6-1T21:28:3Z</time></trkpt>
<trkpt lat="48.11392" lon="367.106228004893"><ele></ele><time>2014-6-1T21:28:6Z</time></trkpt>
<trkpt lat="48.11392" lon="366.894384754526"><ele></ele><time>2014-6-1T21:28:9Z</time></trkpt>
<trkpt lat="48.11392" lon="366.894384754526"><ele></ele><time>2014-6-1T21:28:12Z</time></trkpt>
<trkpt lat="48.11391" lon="368.008068362858"><ele></ele><time>2014-6-1T21:28:15Z</time></trkpt>
<trkpt lat="48.11388" lon="369.601342839528"><ele></ele><time>2014-6-1T21:28:18Z</time></trkpt>
<trkpt lat="48.11385" lon="370.472217925886"><ele></ele><time>2014-6-1T21:28:21Z</time></trkpt>
<trkpt lat="48.11377" lon="369.423640191764"><ele></ele><time>2014-6-1T21:28:24Z</time></trkpt>
<trkpt lat="48.11367" lon="368.293523666089"><ele></ele><time>2014-6-1T21:28:27Z</time></trkpt>
<trkpt lat="48.11361" lon="367.687684418676"><ele></ele><time>2014-6-1T21:28:30Z</time></trkpt>
<trkpt lat="48.11356" lon="367.393491160807"><ele></ele><time>2014-6-1T21:28:33Z</time></trkpt>
<trkpt lat="48.11351" lon="366.811501662259"><ele></ele><time>2014-6-1T21:28:36Z</time></trkpt>
<trkpt lat="48.11344" lon="366.555203777953"><ele></ele><time>2014-6-1T21:28:39Z</time></trkpt>
<trkpt lat="48.11339" lon="366.641864818776"><ele></ele><time>2014-6-1T21:28:42Z</time></trkpt>
<trkpt lat="48.11334" lon="366.700133301426"><ele></ele><time>2014-6-1T21:28:45Z</time></trkpt>
<trkpt lat="48.11329" lon="366.84955927901"><ele></ele><time>2014-6-1T21:28:48Z</time></trkpt>
<trkpt lat="48.11323" lon="366.616531703606"><ele></ele><time>2014-6-1T21:28:51Z</time></trkpt>
<trkpt lat="48.11317" lon="366.383504128202"><ele></ele><time>2014-6-1T21:28:54Z</time></trkpt>
<trkpt lat="48.11311" lon="366.033985944109"><ele></ele><time>2014-6-1T21:28:57Z</time></trkpt>
<trkpt lat="48.11304" lon="365.980190736556"><ele></ele><time>2014-6-1T21:29:0Z</time></trkpt>
<trkpt lat="48.11298" lon="366.305024779652"><ele></ele><time>2014-6-1T21:29:3Z</time></trkpt>
<trkpt lat="48.11293" lon="366.86868079778"><ele></ele><time>2014-6-1T21:29:6Z</time></trkpt>
<trkpt lat="48.11289" lon="367.392958076042"><ele></ele><time>2014-6-1T21:29:9Z</time></trkpt>
<trkpt lat="48.11285" lon="368.189108584808"><ele></ele><time>2014-6-1T21:29:12Z</time></trkpt>
<trkpt lat="48.11282" lon="369.024081571076"><ele></ele><time>2014-6-1T21:29:15Z</time></trkpt>
<trkpt lat="48.11281" lon="369.800809252292"><ele></ele><time>2014-6-1T21:29:18Z</time></trkpt>
<trkpt lat="48.11279" lon="370.830219112448"><ele></ele><time>2014-6-1T21:29:21Z</time></trkpt>
<trkpt lat="48.11277" lon="371.529255484879"><ele></ele><time>2014-6-1T21:29:24Z</time></trkpt>
<trkpt lat="48.11275" lon="372.22829185448"><ele></ele><time>2014-6-1T21:29:27Z</time></trkpt>
<trkpt lat="48.11273" lon="372.944108806816"><ele></ele><time>2014-6-1T21:29:30Z</time></trkpt>
<trkpt lat="48.11271" lon="373.351872297376"><ele></ele><time>2014-6-1T21:29:33Z</time></trkpt>
<trkpt lat="48.11269" lon="373.759635787935"><ele></ele><time>2014-6-1T21:29:36Z</time></trkpt>
<trkpt lat="48.11267" lon="374.2823138119"><ele></ele><time>2014-6-1T21:29:39Z</time></trkpt>
<trkpt lat="48.11266" lon="374.75254093044"><ele></ele><time>2014-6-1T21:29:42Z</time></trkpt>
<trkpt lat="48.11264" lon="375.218688791643"><ele></ele><time>2014-6-1T21:29:45Z</time></trkpt>
<trkpt lat="48.11263" lon="375.749432619888"><ele></ele><time>2014-6-1T21:29:48Z</time></trkpt>
<trkpt lat="48.11262" lon="376.577915878574"><ele></ele><time>2014-6-1T21:29:51Z</time></trkpt>
<trkpt lat="48.11261" lon="377.40639913726"><ele></ele><time>2014-6-1T21:29:54Z</time></trkpt>
<trkpt lat="48.1126" lon="377.788273248871"><ele></ele><time>2014-6-1T21:29:57Z</time></trkpt>
<trkpt lat="48.11259" lon="378.467933148948"><ele></ele><time>2014-6-1T21:30:0Z</time></trkpt>
<trkpt lat="48.11258" lon="378.998676977194"><ele></ele><time>2014-6-1T21:30:3Z</time></trkpt>
<trkpt lat="48.11257" lon="379.678313698258"><ele></ele><time>2014-6-1T21:30:6Z</time></trkpt>
<trkpt lat="48.11255" lon="380.293238564287"><ele></ele><time>2014-6-1T21:30:9Z</time></trkpt>
<trkpt lat="48.11252" lon="380.545665789643"><ele></ele><time>2014-6-1T21:30:12Z</time></trkpt>
<trkpt lat="48.1125" lon="381.309460370891"><ele></ele><time>2014-6-1T21:30:15Z</time></trkpt>
<trkpt lat="48.11248" lon="381.626599451283"><ele></ele><time>2014-6-1T21:30:18Z</time></trkpt>
<trkpt lat="48.11246" lon="381.794891994053"><ele></ele><time>2014-6-1T21:30:21Z</time></trkpt>
<trkpt lat="48.11242" lon="381.833760826752"><ele></ele><time>2014-6-1T21:30:24Z</time></trkpt>
<trkpt lat="48.1124" lon="382.002007014325"><ele></ele><time>2014-6-1T21:30:27Z</time></trkpt>
<trkpt lat="48.11236" lon="381.892006131803"><ele></ele><time>2014-6-1T21:30:30Z</time></trkpt>
<trkpt lat="48.11233" lon="381.721859381153"><ele></ele><time>2014-6-1T21:30:33Z</time></trkpt>
<trkpt lat="48.1123" lon="381.401475435555"><ele></ele><time>2014-6-1T21:30:36Z</time></trkpt>
<trkpt lat="48.11227" lon="380.997188586186"><ele></ele><time>2014-6-1T21:30:39Z</time></trkpt>
<trkpt lat="48.11225" lon="380.749582299906"><ele></ele><time>2014-6-1T21:30:42Z</time></trkpt>
<trkpt lat="48.11224" lon="380.487466839788"><ele></ele><time>2014-6-1T21:30:45Z</time></trkpt>
<trkpt lat="48.11221" lon="380.116092178887"><ele></ele><time>2014-6-1T21:30:48Z</time></trkpt>
<trkpt lat="48.11218" lon="380.021434866578"><ele></ele><time>2014-6-1T21:30:51Z</time></trkpt>
<trkpt lat="48.11217" lon="380.312684569435"><ele></ele><time>2014-6-1T21:30:54Z</time></trkpt>
<trkpt lat="48.11217" lon="380.727772181124"><ele></ele><time>2014-6-1T21:30:57Z</time></trkpt>
<trkpt lat="48.11217" lon="381.004489529717"><ele></ele><time>2014-6-1T21:31:0Z</time></trkpt>
<trkpt lat="48.11217" lon="381.281183700711"><ele></ele><time>2014-6-1T21:31:3Z</time></trkpt>
<trkpt lat="48.11217" lon="381.557901049304"><ele></ele><time>2014-6-1T21:31:6Z</time></trkpt>
<trkpt lat="48.11217" lon="381.834595220298"><ele></ele><time>2014-6-1T21:31:9Z</time></trkpt>
<trkpt lat="48.11217" lon="382.111289391292"><ele></ele><time>2014-6-1T21:31:12Z</time></trkpt>
<trkpt lat="48.11216" lon="382.369765969859"><ele></ele><time>2014-6-1T21:31:15Z</time></trkpt>
<trkpt lat="48.11214" lon="382.253252182157"><ele></ele><time>2014-6-1T21:31:18Z</time></trkpt>
<trkpt lat="48.11213" lon="382.253252182157"><ele></ele><time>2014-6-1T21:31:21Z</time></trkpt>
<trkpt lat="48.11212" lon="382.36974279226"><ele></ele><time>2014-6-1T21:31:24Z</time></trkpt>
<trkpt lat="48.1121" lon="382.486256579962"><ele></ele><time>2014-6-1T21:31:27Z</time></trkpt>
<trkpt lat="48.11207" lon="382.602770367665"><ele></ele><time>2014-6-1T21:31:30Z</time></trkpt>
<trkpt lat="48.11205" lon="382.952265376989"><ele></ele><time>2014-6-1T21:31:33Z</time></trkpt>
<trkpt lat="48.11202" lon="383.185316128577"><ele></ele><time>2014-6-1T21:31:36Z</time></trkpt>
<trkpt lat="48.112" lon="383.651348100372"><ele></ele><time>2014-6-1T21:31:39Z</time></trkpt>
<trkpt lat="48.11198" lon="383.884352499593"><ele></ele><time>2014-6-1T21:31:42Z</time></trkpt>
<trkpt lat="48.11196" lon="384.233893864114"><ele></ele><time>2014-6-1T21:31:45Z</time></trkpt>
<trkpt lat="48.11194" lon="384.583412048207"><ele></ele><time>2014-6-1T21:31:48Z</time></trkpt>
<trkpt lat="48.11193" lon="385.035027555145"><ele></ele><time>2014-6-1T21:31:51Z</time></trkpt>
<trkpt lat="48.11192" lon="385.287454780501"><ele></ele><time>2014-6-1T21:31:54Z</time></trkpt>
<trkpt lat="48.11191" lon="385.423368218154"><ele></ele><time>2014-6-1T21:31:57Z</time></trkpt>
<trkpt lat="48.1119" lon="385.714664276209"><ele></ele><time>2014-6-1T21:32:0Z</time></trkpt>
<trkpt lat="48.11189" lon="386.297210037121"><ele></ele><time>2014-6-1T21:32:3Z</time></trkpt>
<trkpt lat="48.11188" lon="387.054514890787"><ele></ele><time>2014-6-1T21:32:6Z</time></trkpt>
<trkpt lat="48.11187" lon="387.802293751466"><ele></ele><time>2014-6-1T21:32:9Z</time></trkpt>
<trkpt lat="48.11187" lon="388.151835114573"><ele></ele><time>2014-6-1T21:32:12Z</time></trkpt>
<trkpt lat="48.11186" lon="388.326594207327"><ele></ele><time>2014-6-1T21:32:15Z</time></trkpt>
<trkpt lat="48.11185" lon="388.734357699301"><ele></ele><time>2014-6-1T21:32:18Z</time></trkpt>
<trkpt lat="48.11184" lon="388.676135570433"><ele></ele><time>2014-6-1T21:32:21Z</time></trkpt>
<trkpt lat="48.11183" lon="388.930950088436"><ele></ele><time>2014-6-1T21:32:24Z</time></trkpt>
<trkpt lat="48.11183" lon="389.22224614649"><ele></ele><time>2014-6-1T21:32:27Z</time></trkpt>
<trkpt lat="48.11183" lon="389.513495849348"><ele></ele><time>2014-6-1T21:32:30Z</time></trkpt>
<trkpt lat="48.11183" lon="389.804791907402"><ele></ele><time>2014-6-1T21:32:33Z</time></trkpt>
<trkpt lat="48.11183" lon="390.037819482807"><ele></ele><time>2014-6-1T21:32:36Z</time></trkpt>
<trkpt lat="48.11184" lon="390.416448732041"><ele></ele><time>2014-6-1T21:32:39Z</time></trkpt>
<trkpt lat="48.11184" lon="390.649429952248"><ele></ele><time>2014-6-1T21:32:42Z</time></trkpt>
<trkpt lat="48.11185" lon="391.02810555668"><ele></ele><time>2014-6-1T21:32:45Z</time></trkpt>
<trkpt lat="48.11186" lon="391.465049643762"><ele></ele><time>2014-6-1T21:32:48Z</time></trkpt>
<trkpt lat="48.11186" lon="391.90407971471"><ele></ele><time>2014-6-1T21:32:51Z</time></trkpt>
<trkpt lat="48.11186" lon="392.603116084311"><ele></ele><time>2014-6-1T21:32:54Z</time></trkpt>
<trkpt lat="48.11185" lon="393.185661846638"><ele></ele><time>2014-6-1T21:32:57Z</time></trkpt>
<trkpt lat="48.1118" lon="393.069171236534"><ele></ele><time>2014-6-1T21:33:0Z</time></trkpt>
<trkpt lat="48.11177" lon="392.850421061811"><ele></ele><time>2014-6-1T21:33:3Z</time></trkpt>
<trkpt lat="48.11174" lon="392.733930451707"><ele></ele><time>2014-6-1T21:33:6Z</time></trkpt>
<trkpt lat="48.1117" lon="392.559171358953"><ele></ele><time>2014-6-1T21:33:9Z</time></trkpt>
<trkpt lat="48.11169" lon="392.617439841604"><ele></ele><time>2014-6-1T21:33:12Z</time></trkpt>
<trkpt lat="48.1117" lon="392.733930451707"><ele></ele><time>2014-6-1T21:33:15Z</time></trkpt>
<trkpt lat="48.11168" lon="392.500902876303"><ele></ele><time>2014-6-1T21:33:18Z</time></trkpt>
<trkpt lat="48.11166" lon="392.209653173445"><ele></ele><time>2014-6-1T21:33:21Z</time></trkpt>
<trkpt lat="48.11165" lon="392.034847725494"><ele></ele><time>2014-6-1T21:33:24Z</time></trkpt>
<trkpt lat="48.11165" lon="391.976625598041"><ele></ele><time>2014-6-1T21:33:27Z</time></trkpt>
<trkpt lat="48.11165" lon="391.918357115391"><ele></ele><time>2014-6-1T21:33:30Z</time></trkpt>
<trkpt lat="48.11165" lon="391.918357115391"><ele></ele><time>2014-6-1T21:33:33Z</time></trkpt>
<trkpt lat="48.11168" lon="393.665994398127"><ele></ele><time>2014-6-1T21:33:36Z</time></trkpt>
<trkpt lat="48.11166" lon="393.258207729969"><ele></ele><time>2014-6-1T21:33:39Z</time></trkpt>
<trkpt lat="48.11166" lon="393.258207729969"><ele></ele><time>2014-6-1T21:33:42Z</time></trkpt>
<trkpt lat="48.11167" lon="393.374698340073"><ele></ele><time>2014-6-1T21:33:45Z</time></trkpt>
<trkpt lat="48.11167" lon="393.316476212619"><ele></ele><time>2014-6-1T21:33:48Z</time></trkpt>
<trkpt lat="48.11168" lon="393.432966822723"><ele></ele><time>2014-6-1T21:33:51Z</time></trkpt>
<trkpt lat="48.11168" lon="393.432966822723"><ele></ele><time>2014-6-1T21:33:54Z</time></trkpt>
<trkpt lat="48.11168" lon="393.491188950176"><ele></ele><time>2014-6-1T21:33:57Z</time></trkpt>
<trkpt lat="48.11168" lon="393.491188950176"><ele></ele><time>2014-6-1T21:34:0Z</time></trkpt>
<trkpt lat="48.11168" lon="393.549503788024"><ele></ele><time>2014-6-1T21:34:3Z</time></trkpt>
<trkpt lat="48.11168" lon="393.607725915477"><ele></ele><time>2014-6-1T21:34:6Z</time></trkpt>
<trkpt lat="48.11169" lon="393.724216525581"><ele></ele><time>2014-6-1T21:34:9Z</time></trkpt>
<trkpt lat="48.11168" lon="393.607725915477"><ele></ele><time>2014-6-1T21:34:12Z</time></trkpt>
<trkpt lat="48.11167" lon="393.491188950176"><ele></ele><time>2014-6-1T21:34:15Z</time></trkpt>
<trkpt lat="48.11167" lon="393.549457432827"><ele></ele><time>2014-6-1T21:34:18Z</time></trkpt>
<trkpt lat="48.11167" lon="393.549457432827"><ele></ele><time>2014-6-1T21:34:21Z</time></trkpt>
<trkpt lat="48.11168" lon="393.665994398127"><ele></ele><time>2014-6-1T21:34:24Z</time></trkpt>
<trkpt lat="48.11169" lon="393.782485008231"><ele></ele><time>2014-6-1T21:34:27Z</time></trkpt>
<trkpt lat="48.11169" lon="393.724262880778"><ele></ele><time>2014-6-1T21:34:30Z</time></trkpt>
<trkpt lat="48.1117" lon="393.840753490881"><ele></ele><time>2014-6-1T21:34:33Z</time></trkpt>
<trkpt lat="48.11171" lon="393.9572441024"><ele></ele><time>2014-6-1T21:34:36Z</time></trkpt>
<trkpt lat="48.11171" lon="393.898975618335"><ele></ele><time>2014-6-1T21:34:39Z</time></trkpt>
<trkpt lat="48.11172" lon="394.015512583635"><ele></ele><time>2014-6-1T21:34:42Z</time></trkpt>
<trkpt lat="48.11171" lon="393.665994398127"><ele></ele><time>2014-6-1T21:34:45Z</time></trkpt>
<trkpt lat="48.11167" lon="392.792152579161"><ele></ele><time>2014-6-1T21:34:48Z</time></trkpt>
<trkpt lat="48.11162" lon="391.918357115391"><ele></ele><time>2014-6-1T21:34:51Z</time></trkpt>
<trkpt lat="48.11158" lon="391.27758922844"><ele></ele><time>2014-6-1T21:34:54Z</time></trkpt>
<trkpt lat="48.11153" lon="390.462015890709"><ele></ele><time>2014-6-1T21:34:57Z</time></trkpt>
<trkpt lat="48.1115" lon="389.994338308005"><ele></ele><time>2014-6-1T21:35:0Z</time></trkpt>
<trkpt lat="48.11145" lon="388.93414859703"><ele></ele><time>2014-6-1T21:35:3Z</time></trkpt>
<trkpt lat="48.11141" lon="388.118598438312"><ele></ele><time>2014-6-1T21:35:6Z</time></trkpt>
<trkpt lat="48.11136" lon="387.221463132844"><ele></ele><time>2014-6-1T21:35:9Z</time></trkpt>
<trkpt lat="48.11133" lon="386.732137671718"><ele></ele><time>2014-6-1T21:35:12Z</time></trkpt>
<trkpt lat="48.1113" lon="386.242812213422"><ele></ele><time>2014-6-1T21:35:15Z</time></trkpt>
<trkpt lat="48.11127" lon="385.590339637809"><ele></ele><time>2014-6-1T21:35:18Z</time></trkpt>
<trkpt lat="48.11124" lon="384.856351448243"><ele></ele><time>2014-6-1T21:35:21Z</time></trkpt>
<trkpt lat="48.11121" lon="384.114436519986"><ele></ele><time>2014-6-1T21:35:24Z</time></trkpt>
<trkpt lat="48.11119" lon="383.403695461724"><ele></ele><time>2014-6-1T21:35:27Z</time></trkpt>
<trkpt lat="48.11115" lon="382.716317422758"><ele></ele><time>2014-6-1T21:35:30Z</time></trkpt>
<trkpt lat="48.11111" lon="381.819877445245"><ele></ele><time>2014-6-1T21:35:33Z</time></trkpt>
<trkpt lat="48.11106" lon="380.873234789363"><ele></ele><time>2014-6-1T21:35:36Z</time></trkpt>
<trkpt lat="48.11102" lon="380.115953113295"><ele></ele><time>2014-6-1T21:35:39Z</time></trkpt>
<trkpt lat="48.11096" lon="379.067352201575"><ele></ele><time>2014-6-1T21:35:42Z</time></trkpt>
<trkpt lat="48.11092" lon="378.403406714701"><ele></ele><time>2014-6-1T21:35:45Z</time></trkpt>
<trkpt lat="48.11088" lon="377.837479291919"><ele></ele><time>2014-6-1T21:35:48Z</time></trkpt>
<trkpt lat="48.11083" lon="376.980348521477"><ele></ele><time>2014-6-1T21:35:51Z</time></trkpt>
<trkpt lat="48.11079" lon="376.356083083249"><ele></ele><time>2014-6-1T21:35:54Z</time></trkpt>
<trkpt lat="48.11075" lon="375.923357317681"><ele></ele><time>2014-6-1T21:35:57Z</time></trkpt>
<trkpt lat="48.11071" lon="375.490585199746"><ele></ele><time>2014-6-1T21:36:0Z</time></trkpt>
<trkpt lat="48.11068" lon="375.074500951321"><ele></ele><time>2014-6-1T21:36:3Z</time></trkpt>
<trkpt lat="48.11065" lon="374.749945039407"><ele></ele><time>2014-6-1T21:36:6Z</time></trkpt>
<trkpt lat="48.11061" lon="374.408747611764"><ele></ele><time>2014-6-1T21:36:9Z</time></trkpt>
<trkpt lat="48.11058" lon="373.992617008143"><ele></ele><time>2014-6-1T21:36:12Z</time></trkpt>
<trkpt lat="48.11054" lon="373.651419580499"><ele></ele><time>2014-6-1T21:36:15Z</time></trkpt>
<trkpt lat="48.11051" lon="373.33393283613"><ele></ele><time>2014-6-1T21:36:18Z</time></trkpt>
<trkpt lat="48.11049" lon="373.130085858662"><ele></ele><time>2014-6-1T21:36:21Z</time></trkpt>
<trkpt lat="48.11045" lon="372.984461005819"><ele></ele><time>2014-6-1T21:36:24Z</time></trkpt>
<trkpt lat="48.11041" lon="372.751433429"><ele></ele><time>2014-6-1T21:36:27Z</time></trkpt>
<trkpt lat="48.11037" lon="372.545570000462"><ele></ele><time>2014-6-1T21:36:30Z</time></trkpt>
<trkpt lat="48.11033" lon="372.421778446829"><ele></ele><time>2014-6-1T21:36:33Z</time></trkpt>
<trkpt lat="48.11029" lon="372.297986893195"><ele></ele><time>2014-6-1T21:36:36Z</time></trkpt>
<trkpt lat="48.11027" lon="372.181473104078"><ele></ele><time>2014-6-1T21:36:39Z</time></trkpt>
<trkpt lat="48.11025" lon="372.021292722201"><ele></ele><time>2014-6-1T21:36:42Z</time></trkpt>
<trkpt lat="48.11022" lon="372.245559165369"><ele></ele><time>2014-6-1T21:36:45Z</time></trkpt>
<trkpt lat="48.11019" lon="372.420318258123"><ele></ele><time>2014-6-1T21:36:48Z</time></trkpt>
<trkpt lat="48.11015" lon="372.776581124796"><ele></ele><time>2014-6-1T21:36:51Z</time></trkpt>
<trkpt lat="48.11012" lon="373.242613098007"><ele></ele><time>2014-6-1T21:36:54Z</time></trkpt>
<trkpt lat="48.11008" lon="374.003116460267"><ele></ele><time>2014-6-1T21:36:57Z</time></trkpt>
<trkpt lat="48.11005" lon="374.585662221179"><ele></ele><time>2014-6-1T21:37:0Z</time></trkpt>
<trkpt lat="48.11002" lon="375.090516671891"><ele></ele><time>2014-6-1T21:37:3Z</time></trkpt>
<trkpt lat="48.10999" lon="375.440058034997"><ele></ele><time>2014-6-1T21:37:6Z</time></trkpt>
<trkpt lat="48.10997" lon="376.014491636431"><ele></ele><time>2014-6-1T21:37:9Z</time></trkpt>
<trkpt lat="48.10994" lon="376.621304342982"><ele></ele><time>2014-6-1T21:37:12Z</time></trkpt>
<trkpt lat="48.10992" lon="377.087359493791"><ele></ele><time>2014-6-1T21:37:15Z</time></trkpt>
<trkpt lat="48.1099" lon="377.553368289402"><ele></ele><time>2014-6-1T21:37:18Z</time></trkpt>
<trkpt lat="48.10988" lon="378.077668745263"><ele></ele><time>2014-6-1T21:37:21Z</time></trkpt>
<trkpt lat="48.10987" lon="378.427163753172"><ele></ele><time>2014-6-1T21:37:24Z</time></trkpt>
<trkpt lat="48.10986" lon="378.776728293877"><ele></ele><time>2014-6-1T21:37:27Z</time></trkpt>
<trkpt lat="48.10984" lon="379.300982393126"><ele></ele><time>2014-6-1T21:37:30Z</time></trkpt>
<trkpt lat="48.10983" lon="379.592255274996"><ele></ele><time>2014-6-1T21:37:33Z</time></trkpt>
<trkpt lat="48.10983" lon="379.650523757647"><ele></ele><time>2014-6-1T21:37:36Z</time></trkpt>
<trkpt lat="48.10982" lon="379.883551333051"><ele></ele><time>2014-6-1T21:37:39Z</time></trkpt>
<trkpt lat="48.10982" lon="379.941796638103"><ele></ele><time>2014-6-1T21:37:42Z</time></trkpt>
<trkpt lat="48.10982" lon="380.019441593106"><ele></ele><time>2014-6-1T21:37:45Z</time></trkpt>
<trkpt lat="48.10982" lon="380.097156080905"><ele></ele><time>2014-6-1T21:37:48Z</time></trkpt>
<trkpt lat="48.10981" lon="380.330160478711"><ele></ele><time>2014-6-1T21:37:51Z</time></trkpt>
<trkpt lat="48.1098" lon="380.563164876517"><ele></ele><time>2014-6-1T21:37:54Z</time></trkpt>
<trkpt lat="48.10978" lon="380.951528717125"><ele></ele><time>2014-6-1T21:37:57Z</time></trkpt>
<trkpt lat="48.10974" lon="381.631165438189"><ele></ele><time>2014-6-1T21:38:0Z</time></trkpt>
<trkpt lat="48.10971" lon="382.155465894049"><ele></ele><time>2014-6-1T21:38:3Z</time></trkpt>
<trkpt lat="48.10968" lon="382.842426736242"><ele></ele><time>2014-6-1T21:38:6Z</time></trkpt>
<trkpt lat="48.10967" lon="383.075431135463"><ele></ele><time>2014-6-1T21:38:9Z</time></trkpt>
<trkpt lat="48.10965" lon="383.599731589908"><ele></ele><time>2014-6-1T21:38:12Z</time></trkpt>
<trkpt lat="48.10964" lon="383.895918121248"><ele></ele><time>2014-6-1T21:38:15Z</time></trkpt>
<trkpt lat="48.10963" lon="384.245482661953"><ele></ele><time>2014-6-1T21:38:18Z</time></trkpt>
<trkpt lat="48.10962" lon="384.565843428538"><ele></ele><time>2014-6-1T21:38:21Z</time></trkpt>
<trkpt lat="48.1096" lon="385.235745559643"><ele></ele><time>2014-6-1T21:38:24Z</time></trkpt>
<trkpt lat="48.10958" lon="385.963197665015"><ele></ele><time>2014-6-1T21:38:27Z</time></trkpt>
<trkpt lat="48.10956" lon="386.759301818585"><ele></ele><time>2014-6-1T21:38:30Z</time></trkpt>
<trkpt lat="48.10955" lon="387.209155828036"><ele></ele><time>2014-6-1T21:38:33Z</time></trkpt>
<trkpt lat="48.10953" lon="388.024729164352"><ele></ele><time>2014-6-1T21:38:36Z</time></trkpt>
<trkpt lat="48.10952" lon="388.432469477314"><ele></ele><time>2014-6-1T21:38:39Z</time></trkpt>
<trkpt lat="48.1095" lon="389.248065991229"><ele></ele><time>2014-6-1T21:38:42Z</time></trkpt>
<trkpt lat="48.10948" lon="390.180129937649"><ele></ele><time>2014-6-1T21:38:45Z</time></trkpt>
<trkpt lat="48.10947" lon="390.471379640506"><ele></ele><time>2014-6-1T21:38:48Z</time></trkpt>
<trkpt lat="48.10944" lon="391.578249034877"><ele></ele><time>2014-6-1T21:38:51Z</time></trkpt>
<trkpt lat="48.10941" lon="392.452044498647"><ele></ele><time>2014-6-1T21:38:54Z</time></trkpt>
<trkpt lat="48.10939" lon="393.267571479767"><ele></ele><time>2014-6-1T21:38:57Z</time></trkpt>
<trkpt lat="48.10936" lon="394.374440874138"><ele></ele><time>2014-6-1T21:39:0Z</time></trkpt>
<trkpt lat="48.10935" lon="394.8987181524"><ele></ele><time>2014-6-1T21:39:3Z</time></trkpt>
<trkpt lat="48.10932" lon="396.005541191574"><ele></ele><time>2014-6-1T21:39:6Z</time></trkpt>
<trkpt lat="48.10931" lon="396.413327859732"><ele></ele><time>2014-6-1T21:39:9Z</time></trkpt>
<trkpt lat="48.10929" lon="397.228854840851"><ele></ele><time>2014-6-1T21:39:12Z</time></trkpt>
<trkpt lat="48.10928" lon="397.63664150901"><ele></ele><time>2014-6-1T21:39:15Z</time></trkpt>
<trkpt lat="48.10925" lon="398.860001513484"><ele></ele><time>2014-6-1T21:39:18Z</time></trkpt>
<trkpt lat="48.10923" lon="399.675574849801"><ele></ele><time>2014-6-1T21:39:21Z</time></trkpt>
<trkpt lat="48.10919" lon="401.190184557133"><ele></ele><time>2014-6-1T21:39:24Z</time></trkpt>
<trkpt lat="48.10916" lon="402.297007596307"><ele></ele><time>2014-6-1T21:39:27Z</time></trkpt>
<trkpt lat="48.10914" lon="403.229117897924"><ele></ele><time>2014-6-1T21:39:30Z</time></trkpt>
<trkpt lat="48.10911" lon="404.452431547202"><ele></ele><time>2014-6-1T21:39:33Z</time></trkpt>
<trkpt lat="48.10908" lon="405.432751253717"><ele></ele><time>2014-6-1T21:39:36Z</time></trkpt>
<trkpt lat="48.10904" lon="406.510463229164"><ele></ele><time>2014-6-1T21:39:39Z</time></trkpt>
<trkpt lat="48.10902" lon="407.092962634879"><ele></ele><time>2014-6-1T21:39:42Z</time></trkpt>
<trkpt lat="48.10899" lon="407.966804453846"><ele></ele><time>2014-6-1T21:39:45Z</time></trkpt>
<trkpt lat="48.10896" lon="408.840599917616"><ele></ele><time>2014-6-1T21:39:48Z</time></trkpt>
<trkpt lat="48.10892" lon="409.663172888682"><ele></ele><time>2014-6-1T21:39:51Z</time></trkpt>
<trkpt lat="48.10889" lon="410.274829713321"><ele></ele><time>2014-6-1T21:39:54Z</time></trkpt>
<trkpt lat="48.10886" lon="410.973866084337"><ele></ele><time>2014-6-1T21:39:57Z</time></trkpt>
<trkpt lat="48.10883" lon="411.44933134014"><ele></ele><time>2014-6-1T21:40:0Z</time></trkpt>
<trkpt lat="48.1088" lon="411.682358915544"><ele></ele><time>2014-6-1T21:40:3Z</time></trkpt>
<trkpt lat="48.10877" lon="411.915386490948"><ele></ele><time>2014-6-1T21:40:6Z</time></trkpt>
<trkpt lat="48.10873" lon="412.264904676456"><ele></ele><time>2014-6-1T21:40:9Z</time></trkpt>
<trkpt lat="48.1087" lon="412.525884435662"><ele></ele><time>2014-6-1T21:40:12Z</time></trkpt>
<trkpt lat="48.10867" lon="412.817180493716"><ele></ele><time>2014-6-1T21:40:15Z</time></trkpt>
<trkpt lat="48.10865" lon="413.021050650197"><ele></ele><time>2014-6-1T21:40:18Z</time></trkpt>
<trkpt lat="48.10863" lon="413.239476338541"><ele></ele><time>2014-6-1T21:40:21Z</time></trkpt>
<trkpt lat="48.1086" lon="413.530772396595"><ele></ele><time>2014-6-1T21:40:24Z</time></trkpt>
<trkpt lat="48.10858" lon="413.749198084939"><ele></ele><time>2014-6-1T21:40:27Z</time></trkpt>
<trkpt lat="48.10855" lon="414.055049674857"><ele></ele><time>2014-6-1T21:40:30Z</time></trkpt>
<trkpt lat="48.10851" lon="414.433725279289"><ele></ele><time>2014-6-1T21:40:33Z</time></trkpt>
<trkpt lat="48.10847" lon="414.757840816831"><ele></ele><time>2014-6-1T21:40:36Z</time></trkpt>
<trkpt lat="48.10844" lon="414.769800457662"><ele></ele><time>2014-6-1T21:40:39Z</time></trkpt>
<trkpt lat="48.10841" lon="414.650250404555"><ele></ele><time>2014-6-1T21:40:42Z</time></trkpt>
<trkpt lat="48.10837" lon="414.446333892877"><ele></ele><time>2014-6-1T21:40:45Z</time></trkpt>
<trkpt lat="48.10834" lon="414.271574800123"><ele></ele><time>2014-6-1T21:40:48Z</time></trkpt>
<trkpt lat="48.1083" lon="414.038593579916"><ele></ele><time>2014-6-1T21:40:51Z</time></trkpt>
<trkpt lat="48.10826" lon="413.805566004512"><ele></ele><time>2014-6-1T21:40:54Z</time></trkpt>
<trkpt lat="48.10822" lon="413.543381010184"><ele></ele><time>2014-6-1T21:40:57Z</time></trkpt>
<trkpt lat="48.10818" lon="413.339464498506"><ele></ele><time>2014-6-1T21:41:0Z</time></trkpt>
<trkpt lat="48.10813" lon="413.2230202436"><ele></ele><time>2014-6-1T21:41:3Z</time></trkpt>
<trkpt lat="48.10807" lon="412.960835249272"><ele></ele><time>2014-6-1T21:41:6Z</time></trkpt>
<trkpt lat="48.10801" lon="412.688034914827"><ele></ele><time>2014-6-1T21:41:9Z</time></trkpt>
<trkpt lat="48.10797" lon="412.615210900313"><ele></ele><time>2014-6-1T21:41:12Z</time></trkpt>
<trkpt lat="48.10791" lon="412.527831353936"><ele></ele><time>2014-6-1T21:41:15Z</time></trkpt>
<trkpt lat="48.10785" lon="412.440451807559"><ele></ele><time>2014-6-1T21:41:18Z</time></trkpt>
<trkpt lat="48.10779" lon="412.057604235396"><ele></ele><time>2014-6-1T21:41:21Z</time></trkpt>
<trkpt lat="48.10774" lon="411.622236225013"><ele></ele><time>2014-6-1T21:41:24Z</time></trkpt>
<trkpt lat="48.10768" lon="411.316662766277"><ele></ele><time>2014-6-1T21:41:27Z</time></trkpt>
<trkpt lat="48.10764" lon="411.388327900865"><ele></ele><time>2014-6-1T21:41:30Z</time></trkpt>
<trkpt lat="48.10758" lon="411.239017809859"><ele></ele><time>2014-6-1T21:41:33Z</time></trkpt>
<trkpt lat="48.10752" lon="410.831231143115"><ele></ele><time>2014-6-1T21:41:36Z</time></trkpt>
<trkpt lat="48.10747" lon="410.507579157543"><ele></ele><time>2014-6-1T21:41:39Z</time></trkpt>
<trkpt lat="48.10741" lon="410.479441552954"><ele></ele><time>2014-6-1T21:41:42Z</time></trkpt>
<trkpt lat="48.10736" lon="410.552265567467"><ele></ele><time>2014-6-1T21:41:45Z</time></trkpt>
<trkpt lat="48.1073" lon="410.944847731004"><ele></ele><time>2014-6-1T21:41:48Z</time></trkpt>
<trkpt lat="48.10724" lon="411.42244532587"><ele></ele><time>2014-6-1T21:41:51Z</time></trkpt>
<trkpt lat="48.10719" lon="411.519513108423"><ele></ele><time>2014-6-1T21:41:54Z</time></trkpt>
<trkpt lat="48.10714" lon="411.58746982725"><ele></ele><time>2014-6-1T21:41:57Z</time></trkpt>
<trkpt lat="48.10708" lon="411.723754107895"><ele></ele><time>2014-6-1T21:42:0Z</time></trkpt>
<trkpt lat="48.10703" lon="411.999984725504"><ele></ele><time>2014-6-1T21:42:3Z</time></trkpt>
<trkpt lat="48.10698" lon="411.999984725504"><ele></ele><time>2014-6-1T21:42:6Z</time></trkpt>
<trkpt lat="48.10692" lon="411.999984724089"><ele></ele><time>2014-6-1T21:42:9Z</time></trkpt>
<trkpt lat="48.10686" lon="411.999984725504"><ele></ele><time>2014-6-1T21:42:12Z</time></trkpt>
<trkpt lat="48.10681" lon="411.999984725504"><ele></ele><time>2014-6-1T21:42:15Z</time></trkpt>
<trkpt lat="48.10676" lon="411.999984725504"><ele></ele><time>2014-6-1T21:42:18Z</time></trkpt>
<trkpt lat="48.1067" lon="411.999984725504"><ele></ele><time>2014-6-1T21:42:21Z</time></trkpt>
<trkpt lat="48.10665" lon="411.999984724089"><ele></ele><time>2014-6-1T21:42:24Z</time></trkpt>
<trkpt lat="48.1066" lon="411.999984725504"><ele></ele><time>2014-6-1T21:42:27Z</time></trkpt>
<trkpt lat="48.10655" lon="411.999984725504"><ele></ele><time>2014-6-1T21:42:30Z</time></trkpt>
<trkpt lat="48.10652" lon="411.999984725504"><ele></ele><time>2014-6-1T21:42:33Z</time></trkpt>
<trkpt lat="48.10648" lon="411.999984725504"><ele></ele><time>2014-6-1T21:42:36Z</time></trkpt>
<trkpt lat="48.10643" lon="411.999984725504"><ele></ele><time>2014-6-1T21:42:39Z</time></trkpt>
<trkpt lat="48.10637" lon="411.972217962491"><ele></ele><time>2014-6-1T21:42:42Z</time></trkpt>
<trkpt lat="48.10631" lon="411.855773707584"><ele></ele><time>2014-6-1T21:42:45Z</time></trkpt>
<trkpt lat="48.10627" lon="411.778036042187"><ele></ele><time>2014-6-1T21:42:48Z</time></trkpt>
<trkpt lat="48.10621" lon="411.66159178728"><ele></ele><time>2014-6-1T21:42:51Z</time></trkpt>
<trkpt lat="48.10619" lon="411.622699776983"><ele></ele><time>2014-6-1T21:42:54Z</time></trkpt>
<trkpt lat="48.10616" lon="411.56447764953"><ele></ele><time>2014-6-1T21:42:57Z</time></trkpt>
<trkpt lat="48.10614" lon="411.598409653746"><ele></ele><time>2014-6-1T21:43:0Z</time></trkpt>
<trkpt lat="48.10612" lon="411.782903337874"><ele></ele><time>2014-6-1T21:43:3Z</time></trkpt>
<trkpt lat="48.1061" lon="411.996508085728"><ele></ele><time>2014-6-1T21:43:6Z</time></trkpt>
<trkpt lat="48.10609" lon="412.161578942305"><ele></ele><time>2014-6-1T21:43:9Z</time></trkpt>
<trkpt lat="48.10609" lon="412.307226971333"><ele></ele><time>2014-6-1T21:43:12Z</time></trkpt>
<trkpt lat="48.10609" lon="412.511097127813"><ele></ele><time>2014-6-1T21:43:15Z</time></trkpt>
<trkpt lat="48.10608" lon="412.399427458199"><ele></ele><time>2014-6-1T21:43:18Z</time></trkpt>
<trkpt lat="48.10608" lon="412.12755422628"><ele></ele><time>2014-6-1T21:43:21Z</time></trkpt>
<trkpt lat="48.10608" lon="411.816881697287"><ele></ele><time>2014-6-1T21:43:24Z</time></trkpt>
<trkpt lat="48.10607" lon="411.678186947812"><ele></ele><time>2014-6-1T21:43:27Z</time></trkpt>
<trkpt lat="48.10607" lon="411.581072810062"><ele></ele><time>2014-6-1T21:43:30Z</time></trkpt>
<trkpt lat="48.10607" lon="411.445159372408"><ele></ele><time>2014-6-1T21:43:33Z</time></trkpt>
<trkpt lat="48.10607" lon="411.289823107204"><ele></ele><time>2014-6-1T21:43:36Z</time></trkpt>
<trkpt lat="48.10607" lon="411.173332497101"><ele></ele><time>2014-6-1T21:43:39Z</time></trkpt>
<trkpt lat="48.10607" lon="411.0567955318"><ele></ele><time>2014-6-1T21:43:42Z</time></trkpt>
<trkpt lat="48.10606" lon="410.99852704915"><ele></ele><time>2014-6-1T21:43:45Z</time></trkpt>
<trkpt lat="48.10605" lon="410.920882092732"><ele></ele><time>2014-6-1T21:43:48Z</time></trkpt>
<trkpt lat="48.10608" lon="410.649008863642"><ele></ele><time>2014-6-1T21:43:51Z</time></trkpt>
<trkpt lat="48.10614" lon="410.465627704243"><ele></ele><time>2014-6-1T21:43:54Z</time></trkpt>
<trkpt lat="48.10619" lon="410.538451718756"><ele></ele><time>2014-6-1T21:43:57Z</time></trkpt>
<trkpt lat="48.10624" lon="410.59667384621"><ele></ele><time>2014-6-1T21:44:0Z</time></trkpt>
<trkpt lat="48.10629" lon="410.162047518978"><ele></ele><time>2014-6-1T21:44:3Z</time></trkpt>
<trkpt lat="48.10635" lon="409.999989750207"><ele></ele><time>2014-6-1T21:44:6Z</time></trkpt>
<trkpt lat="48.10642" lon="409.999989748793"><ele></ele><time>2014-6-1T21:44:9Z</time></trkpt>
<trkpt lat="48.10646" lon="409.999989750207"><ele></ele><time>2014-6-1T21:44:12Z</time></trkpt>
<trkpt lat="48.10652" lon="409.999989750207"><ele></ele><time>2014-6-1T21:44:15Z</time></trkpt>
<trkpt lat="48.10659" lon="409.941350425981"><ele></ele><time>2014-6-1T21:44:18Z</time></trkpt>
<trkpt lat="48.10665" lon="409.38504170658"><ele></ele><time>2014-6-1T21:44:21Z</time></trkpt>
<trkpt lat="48.10671" lon="409.225208987266"><ele></ele><time>2014-6-1T21:44:24Z</time></trkpt>
<trkpt lat="48.10674" lon="409.302900297466"><ele></ele><time>2014-6-1T21:44:27Z</time></trkpt>
<trkpt lat="48.10679" lon="409.45823656267"><ele></ele><time>2014-6-1T21:44:30Z</time></trkpt>
<trkpt lat="48.10684" lon="409.613572829288"><ele></ele><time>2014-6-1T21:44:33Z</time></trkpt>
<trkpt lat="48.10689" lon="409.674020004784"><ele></ele><time>2014-6-1T21:44:36Z</time></trkpt>
<trkpt lat="48.10694" lon="409.356857746794"><ele></ele><time>2014-6-1T21:44:39Z</time></trkpt>
<trkpt lat="48.10698" lon="409.104407343839"><ele></ele><time>2014-6-1T21:44:42Z</time></trkpt>
<trkpt lat="48.10704" lon="408.742975872698"><ele></ele><time>2014-6-1T21:44:45Z</time></trkpt>
<trkpt lat="48.10709" lon="408.469665631086"><ele></ele><time>2014-6-1T21:44:48Z</time></trkpt>
<trkpt lat="48.10714" lon="408.196309034277"><ele></ele><time>2014-6-1T21:44:51Z</time></trkpt>
<trkpt lat="48.10719" lon="407.919568508086"><ele></ele><time>2014-6-1T21:44:54Z</time></trkpt>
<trkpt lat="48.10723" lon="407.702301699667"><ele></ele><time>2014-6-1T21:44:57Z</time></trkpt>
<trkpt lat="48.10728" lon="407.425514818279"><ele></ele><time>2014-6-1T21:45:0Z</time></trkpt>
<trkpt lat="48.10733" lon="407.335075828899"><ele></ele><time>2014-6-1T21:45:3Z</time></trkpt>
<trkpt lat="48.10749" lon="407.250894791116"><ele></ele><time>2014-6-1T21:45:6Z</time></trkpt>
<trkpt lat="48.10744" lon="407.31889786514"><ele></ele><time>2014-6-1T21:45:9Z</time></trkpt>
<trkpt lat="48.10741" lon="407.354498656449"><ele></ele><time>2014-6-1T21:45:12Z</time></trkpt>
<trkpt lat="48.10737" lon="407.412767139099"><ele></ele><time>2014-6-1T21:45:15Z</time></trkpt>
<trkpt lat="48.10732" lon="407.47103562175"><ele></ele><time>2014-6-1T21:45:18Z</time></trkpt>
<trkpt lat="48.10728" lon="407.526059240609"><ele></ele><time>2014-6-1T21:45:21Z</time></trkpt>
<trkpt lat="48.10722" lon="407.600505687018"><ele></ele><time>2014-6-1T21:45:24Z</time></trkpt>
<trkpt lat="48.10716" lon="407.801965373254"><ele></ele><time>2014-6-1T21:45:27Z</time></trkpt>
<trkpt lat="48.1071" lon="408.080930947487"><ele></ele><time>2014-6-1T21:45:30Z</time></trkpt>
<trkpt lat="48.10705" lon="408.310574594924"><ele></ele><time>2014-6-1T21:45:33Z</time></trkpt>
<trkpt lat="48.10698" lon="408.632094241434"><ele></ele><time>2014-6-1T21:45:36Z</time></trkpt>
<trkpt lat="48.10693" lon="408.861737887456"><ele></ele><time>2014-6-1T21:45:39Z</time></trkpt>
<trkpt lat="48.10686" lon="409.228731982239"><ele></ele><time>2014-6-1T21:45:42Z</time></trkpt>
<trkpt lat="48.1068" lon="409.493373802009"><ele></ele><time>2014-6-1T21:45:45Z</time></trkpt>
<trkpt lat="48.10673" lon="409.391438723768"><ele></ele><time>2014-6-1T21:45:48Z</time></trkpt>
<trkpt lat="48.10668" lon="409.289503645528"><ele></ele><time>2014-6-1T21:45:51Z</time></trkpt>
<trkpt lat="48.10662" lon="409.260392581802"><ele></ele><time>2014-6-1T21:45:54Z</time></trkpt>
<trkpt lat="48.10655" lon="409.158411148364"><ele></ele><time>2014-6-1T21:45:57Z</time></trkpt>
<trkpt lat="48.10652" lon="409.085587133851"><ele></ele><time>2014-6-1T21:46:0Z</time></trkpt>
<trkpt lat="48.10651" lon="409.07107795577"><ele></ele><time>2014-6-1T21:46:3Z</time></trkpt>
<trkpt lat="48.1065" lon="409.056476070124"><ele></ele><time>2014-6-1T21:46:6Z</time></trkpt>
<trkpt lat="48.10648" lon="409.027365006397"><ele></ele><time>2014-6-1T21:46:9Z</time></trkpt>
<trkpt lat="48.10645" lon="408.98365205561"><ele></ele><time>2014-6-1T21:46:12Z</time></trkpt>
<trkpt lat="48.10641" lon="408.96251408577"><ele></ele><time>2014-6-1T21:46:15Z</time></trkpt>
<trkpt lat="48.10637" lon="409.083130308409"><ele></ele><time>2014-6-1T21:46:18Z</time></trkpt>
<trkpt lat="48.10633" lon="409.316157883813"><ele></ele><time>2014-6-1T21:46:21Z</time></trkpt>
<trkpt lat="48.1063" lon="409.285007192832"><ele></ele><time>2014-6-1T21:46:24Z</time></trkpt>
<trkpt lat="48.10626" lon="409.110201743467"><ele></ele><time>2014-6-1T21:46:27Z</time></trkpt>
<trkpt lat="48.10622" lon="408.877220523259"><ele></ele><time>2014-6-1T21:46:30Z</time></trkpt>
<trkpt lat="48.10619" lon="408.570719960583"><ele></ele><time>2014-6-1T21:46:33Z</time></trkpt>
<trkpt lat="48.10618" lon="408.454182995282"><ele></ele><time>2014-6-1T21:46:36Z</time></trkpt>
<trkpt lat="48.10615" lon="408.104711164972"><ele></ele><time>2014-6-1T21:46:39Z</time></trkpt>
<trkpt lat="48.10612" lon="407.755146624267"><ele></ele><time>2014-6-1T21:46:42Z</time></trkpt>
<trkpt lat="48.10609" lon="407.405628438759"><ele></ele><time>2014-6-1T21:46:45Z</time></trkpt>
<trkpt lat="48.10606" lon="407.099962269629"><ele></ele><time>2014-6-1T21:46:48Z</time></trkpt>
<trkpt lat="48.10601" lon="406.762079238572"><ele></ele><time>2014-6-1T21:46:51Z</time></trkpt>
<trkpt lat="48.10598" lon="406.552368327267"><ele></ele><time>2014-6-1T21:46:54Z</time></trkpt>
<trkpt lat="48.10596" lon="406.400925898613"><ele></ele><time>2014-6-1T21:46:57Z</time></trkpt>
<trkpt lat="48.10593" lon="406.191168632111"><ele></ele><time>2014-6-1T21:47:0Z</time></trkpt>
<trkpt lat="48.1059" lon="405.904229961162"><ele></ele><time>2014-6-1T21:47:3Z</time></trkpt>
<trkpt lat="48.10588" lon="405.689188203615"><ele></ele><time>2014-6-1T21:47:6Z</time></trkpt>
<trkpt lat="48.10585" lon="405.366509675765"><ele></ele><time>2014-6-1T21:47:9Z</time></trkpt>
<trkpt lat="48.10583" lon="405.129032002862"><ele></ele><time>2014-6-1T21:47:12Z</time></trkpt>
<trkpt lat="48.10579" lon="404.822902281762"><ele></ele><time>2014-6-1T21:47:15Z</time></trkpt>
<trkpt lat="48.10577" lon="404.691809784598"><ele></ele><time>2014-6-1T21:47:18Z</time></trkpt>
<trkpt lat="48.10575" lon="404.648143189008"><ele></ele><time>2014-6-1T21:47:21Z</time></trkpt>
<trkpt lat="48.10572" lon="404.517097047041"><ele></ele><time>2014-6-1T21:47:24Z</time></trkpt>
<trkpt lat="48.10568" lon="404.136891721107"><ele></ele><time>2014-6-1T21:47:27Z</time></trkpt>
<trkpt lat="48.10564" lon="403.496077477545"><ele></ele><time>2014-6-1T21:47:30Z</time></trkpt>
<trkpt lat="48.1056" lon="402.974164314331"><ele></ele><time>2014-6-1T21:47:33Z</time></trkpt>
<trkpt lat="48.1056" lon="402.974164314331"><ele></ele><time>2014-6-1T21:47:36Z</time></trkpt>
<trkpt lat="48.10559" lon="402.850395938296"><ele></ele><time>2014-6-1T21:47:39Z</time></trkpt>
<trkpt lat="48.10554" lon="402.231461347725"><ele></ele><time>2014-6-1T21:47:42Z</time></trkpt>
<trkpt lat="48.10551" lon="401.860109864422"><ele></ele><time>2014-6-1T21:47:45Z</time></trkpt>
<trkpt lat="48.10548" lon="401.525100856995"><ele></ele><time>2014-6-1T21:47:48Z</time></trkpt>
<trkpt lat="48.10545" lon="401.153749372278"><ele></ele><time>2014-6-1T21:47:51Z</time></trkpt>
<trkpt lat="48.10542" lon="400.782351533778"><ele></ele><time>2014-6-1T21:47:54Z</time></trkpt>
<trkpt lat="48.1054" lon="400.498379596852"><ele></ele><time>2014-6-1T21:47:57Z</time></trkpt>
<trkpt lat="48.10536" lon="400.06579289829"><ele></ele><time>2014-6-1T21:48:0Z</time></trkpt>
<trkpt lat="48.10533" lon="399.895113062873"><ele></ele><time>2014-6-1T21:48:3Z</time></trkpt>
<trkpt lat="48.1053" lon="399.574705941092"><ele></ele><time>2014-6-1T21:48:6Z</time></trkpt>
<trkpt lat="48.10527" lon="399.312520946764"><ele></ele><time>2014-6-1T21:48:9Z</time></trkpt>
<trkpt lat="48.10525" lon="399.137808209207"><ele></ele><time>2014-6-1T21:48:12Z</time></trkpt>
<trkpt lat="48.10524" lon="399.050382307633"><ele></ele><time>2014-6-1T21:48:15Z</time></trkpt>
<trkpt lat="48.10521" lon="398.788243668502"><ele></ele><time>2014-6-1T21:48:18Z</time></trkpt>
<trkpt lat="48.10518" lon="398.467882901918"><ele></ele><time>2014-6-1T21:48:21Z</time></trkpt>
<trkpt lat="48.10516" lon="398.351345936617"><ele></ele><time>2014-6-1T21:48:24Z</time></trkpt>
<trkpt lat="48.10513" lon="398.089207297486"><ele></ele><time>2014-6-1T21:48:27Z</time></trkpt>
<trkpt lat="48.10509" lon="397.739689111978"><ele></ele><time>2014-6-1T21:48:30Z</time></trkpt>
<trkpt lat="48.10506" lon="397.477550471433"><ele></ele><time>2014-6-1T21:48:33Z</time></trkpt>
<trkpt lat="48.10503" lon="397.215365478519"><ele></ele><time>2014-6-1T21:48:36Z</time></trkpt>
<trkpt lat="48.105" lon="396.927036153074"><ele></ele><time>2014-6-1T21:48:39Z</time></trkpt>
<trkpt lat="48.10498" lon="396.810499186359"><ele></ele><time>2014-6-1T21:48:42Z</time></trkpt>
<trkpt lat="48.10496" lon="396.752230705123"><ele></ele><time>2014-6-1T21:48:45Z</time></trkpt>
<trkpt lat="48.10494" lon="396.635740095019"><ele></ele><time>2014-6-1T21:48:48Z</time></trkpt>
<trkpt lat="48.10491" lon="396.460981002265"><ele></ele><time>2014-6-1T21:48:51Z</time></trkpt>
<trkpt lat="48.10486" lon="396.111462816757"><ele></ele><time>2014-6-1T21:48:54Z</time></trkpt>
<trkpt lat="48.10483" lon="395.936703724003"><ele></ele><time>2014-6-1T21:48:57Z</time></trkpt>
<trkpt lat="48.10481" lon="395.878435241353"><ele></ele><time>2014-6-1T21:49:0Z</time></trkpt>
<trkpt lat="48.10478" lon="395.645454021146"><ele></ele><time>2014-6-1T21:49:3Z</time></trkpt>
<trkpt lat="48.10474" lon="395.412426445742"><ele></ele><time>2014-6-1T21:49:6Z</time></trkpt>
<trkpt lat="48.10471" lon="395.237667352988"><ele></ele><time>2014-6-1T21:49:9Z</time></trkpt>
<trkpt lat="48.10467" lon="395.006818471843"><ele></ele><time>2014-6-1T21:49:12Z</time></trkpt>
<trkpt lat="48.10464" lon="394.93538511324"><ele></ele><time>2014-6-1T21:49:15Z</time></trkpt>
<trkpt lat="48.10462" lon="394.895334223017"><ele></ele><time>2014-6-1T21:49:18Z</time></trkpt>
<trkpt lat="48.10459" lon="394.829787974435"><ele></ele><time>2014-6-1T21:49:21Z</time></trkpt>
<trkpt lat="48.10457" lon="394.782459318281"><ele></ele><time>2014-6-1T21:49:24Z</time></trkpt>
<trkpt lat="48.10455" lon="394.738746367494"><ele></ele><time>2014-6-1T21:49:27Z</time></trkpt>
<trkpt lat="48.10452" lon="394.673246472694"><ele></ele><time>2014-6-1T21:49:30Z</time></trkpt>
<trkpt lat="48.10449" lon="394.607700225527"><ele></ele><time>2014-6-1T21:49:33Z</time></trkpt>
<trkpt lat="48.10446" lon="394.54215397836"><ele></ele><time>2014-6-1T21:49:36Z</time></trkpt>
<trkpt lat="48.1044" lon="394.411061479781"><ele></ele><time>2014-6-1T21:49:39Z</time></trkpt>
<trkpt lat="48.10436" lon="394.323681933404"><ele></ele><time>2014-6-1T21:49:42Z</time></trkpt>
<trkpt lat="48.1043" lon="394.188927375676"><ele></ele><time>2014-6-1T21:49:45Z</time></trkpt>
<trkpt lat="48.10426" lon="394.10525624506"><ele></ele><time>2014-6-1T21:49:48Z</time></trkpt>
<trkpt lat="48.1044" lon="395.902354523014"><ele></ele><time>2014-6-1T21:49:51Z</time></trkpt>
<trkpt lat="48.10438" lon="395.880474870022"><ele></ele><time>2014-6-1T21:49:54Z</time></trkpt>
<trkpt lat="48.10436" lon="395.937120920777"><ele></ele><time>2014-6-1T21:49:57Z</time></trkpt>
<trkpt lat="48.10434" lon="396.170148496181"><ele></ele><time>2014-6-1T21:50:0Z</time></trkpt>
<trkpt lat="48.10431" lon="396.306061933835"><ele></ele><time>2014-6-1T21:50:3Z</time></trkpt>
<trkpt lat="48.10429" lon="396.461398199038"><ele></ele><time>2014-6-1T21:50:6Z</time></trkpt>
<trkpt lat="48.10427" lon="396.691644462622"><ele></ele><time>2014-6-1T21:50:9Z</time></trkpt>
<trkpt lat="48.10428" lon="396.982940520676"><ele></ele><time>2014-6-1T21:50:12Z</time></trkpt>
<trkpt lat="48.10429" lon="397.303347642458"><ele></ele><time>2014-6-1T21:50:15Z</time></trkpt>
<trkpt lat="48.10431" lon="397.682023245475"><ele></ele><time>2014-6-1T21:50:18Z</time></trkpt>
<trkpt lat="48.10433" lon="397.746688746728"><ele></ele><time>2014-6-1T21:50:21Z</time></trkpt>
<trkpt lat="48.10437" lon="397.874814511283"><ele></ele><time>2014-6-1T21:50:24Z</time></trkpt>
<trkpt lat="48.10442" lon="398.049573605451"><ele></ele><time>2014-6-1T21:50:27Z</time></trkpt>
<trkpt lat="48.10447" lon="398.312361215926"><ele></ele><time>2014-6-1T21:50:30Z</time></trkpt>
<trkpt lat="48.10452" lon="398.642456573884"><ele></ele><time>2014-6-1T21:50:33Z</time></trkpt>
<trkpt lat="48.10456" lon="399.011397586942"><ele></ele><time>2014-6-1T21:50:36Z</time></trkpt>
<trkpt lat="48.10461" lon="399.317527308042"><ele></ele><time>2014-6-1T21:50:39Z</time></trkpt>
<trkpt lat="48.10465" lon="399.646556496468"><ele></ele><time>2014-6-1T21:50:42Z</time></trkpt>
<trkpt lat="48.1047" lon="400.423284177684"><ele></ele><time>2014-6-1T21:50:45Z</time></trkpt>
<trkpt lat="48.10475" lon="401.132008784877"><ele></ele><time>2014-6-1T21:50:48Z</time></trkpt>
<trkpt lat="48.1048" lon="401.481109773612"><ele></ele><time>2014-6-1T21:50:51Z</time></trkpt>
<trkpt lat="48.10484" lon="401.34904381731"><ele></ele><time>2014-6-1T21:50:54Z</time></trkpt>
<trkpt lat="48.10489" lon="401.189813715557"><ele></ele><time>2014-6-1T21:50:57Z</time></trkpt>
<trkpt lat="48.10494" lon="401.007313304901"><ele></ele><time>2014-6-1T21:51:0Z</time></trkpt>
<trkpt lat="48.10497" lon="400.855778165853"><ele></ele><time>2014-6-1T21:51:3Z</time></trkpt>
<trkpt lat="48.105" lon="400.704335737198"><ele></ele><time>2014-6-1T21:51:6Z</time></trkpt>
<trkpt lat="48.10503" lon="400.482757895457"><ele></ele><time>2014-6-1T21:51:9Z</time></trkpt>
<trkpt lat="48.10506" lon="400.197302592227"><ele></ele><time>2014-6-1T21:51:12Z</time></trkpt>
<trkpt lat="48.10508" lon="399.952639862371"><ele></ele><time>2014-6-1T21:51:15Z</time></trkpt>
<trkpt lat="48.1051" lon="399.777880769617"><ele></ele><time>2014-6-1T21:51:18Z</time></trkpt>
<trkpt lat="48.1051" lon="399.754610460715"><ele></ele><time>2014-6-1T21:51:21Z</time></trkpt>
<trkpt lat="48.10511" lon="399.71381788734"><ele></ele><time>2014-6-1T21:51:24Z</time></trkpt>
<trkpt lat="48.10511" lon="399.71381788734"><ele></ele><time>2014-6-1T21:51:27Z</time></trkpt>
<trkpt lat="48.10512" lon="399.696295622867"><ele></ele><time>2014-6-1T21:51:30Z</time></trkpt>
<trkpt lat="48.10512" lon="399.696295622867"><ele></ele><time>2014-6-1T21:51:33Z</time></trkpt>
<trkpt lat="48.10512" lon="399.719612286967"><ele></ele><time>2014-6-1T21:51:36Z</time></trkpt>
<trkpt lat="48.10513" lon="399.678819713592"><ele></ele><time>2014-6-1T21:51:39Z</time></trkpt>
<trkpt lat="48.10513" lon="399.655549404689"><ele></ele><time>2014-6-1T21:51:42Z</time></trkpt>
<trkpt lat="48.10513" lon="399.678819713592"><ele></ele><time>2014-6-1T21:51:45Z</time></trkpt>
<trkpt lat="48.10514" lon="399.624213291506"><ele></ele><time>2014-6-1T21:51:48Z</time></trkpt>
<trkpt lat="48.10514" lon="399.624213291506"><ele></ele><time>2014-6-1T21:51:51Z</time></trkpt>
<trkpt lat="48.10515" lon="399.595055872582"><ele></ele><time>2014-6-1T21:51:54Z</time></trkpt>
<trkpt lat="48.10515" lon="399.595055872582"><ele></ele><time>2014-6-1T21:51:57Z</time></trkpt>
<trkpt lat="48.10514" lon="399.624213291506"><ele></ele><time>2014-6-1T21:52:0Z</time></trkpt>
<trkpt lat="48.10514" lon="399.624213291506"><ele></ele><time>2014-6-1T21:52:3Z</time></trkpt>
<trkpt lat="48.10514" lon="399.624213291506"><ele></ele><time>2014-6-1T21:52:6Z</time></trkpt>
<trkpt lat="48.10513" lon="399.653324355233"><ele></ele><time>2014-6-1T21:52:9Z</time></trkpt>
<trkpt lat="48.10512" lon="399.696341978064"><ele></ele><time>2014-6-1T21:52:12Z</time></trkpt>
<trkpt lat="48.10511" lon="399.711592837883"><ele></ele><time>2014-6-1T21:52:15Z</time></trkpt>
<trkpt lat="48.10513" lon="399.653324355233"><ele></ele><time>2014-6-1T21:52:18Z</time></trkpt>
<trkpt lat="48.10517" lon="399.536833745129"><ele></ele><time>2014-6-1T21:52:21Z</time></trkpt>
<trkpt lat="48.1052" lon="399.176004891549"><ele></ele><time>2014-6-1T21:52:24Z</time></trkpt>
<trkpt lat="48.10523" lon="398.389588974156"><ele></ele><time>2014-6-1T21:52:27Z</time></trkpt>
<trkpt lat="48.10526" lon="398.151601392671"><ele></ele><time>2014-6-1T21:52:30Z</time></trkpt>
<trkpt lat="48.10528" lon="397.907077728407"><ele></ele><time>2014-6-1T21:52:33Z</time></trkpt>
<trkpt lat="48.10531" lon="397.55746683109"><ele></ele><time>2014-6-1T21:52:36Z</time></trkpt>
<trkpt lat="48.10533" lon="397.360132758803"><ele></ele><time>2014-6-1T21:52:39Z</time></trkpt>
<trkpt lat="48.10534" lon="397.234649240478"><ele></ele><time>2014-6-1T21:52:42Z</time></trkpt>
<trkpt lat="48.10535" lon="397.145044644645"><ele></ele><time>2014-6-1T21:52:45Z</time></trkpt>
<trkpt lat="48.10536" lon="397.010614573295"><ele></ele><time>2014-6-1T21:52:48Z</time></trkpt>
<trkpt lat="48.10536" lon="396.966855267311"><ele></ele><time>2014-6-1T21:52:51Z</time></trkpt>
<trkpt lat="48.10535" lon="397.025077394765"><ele></ele><time>2014-6-1T21:52:54Z</time></trkpt>
<trkpt lat="48.10532" lon="396.715424678691"><ele></ele><time>2014-6-1T21:52:57Z</time></trkpt>
<trkpt lat="48.10529" lon="396.481979906514"><ele></ele><time>2014-6-1T21:53:0Z</time></trkpt>
<trkpt lat="48.10525" lon="396.765395581076"><ele></ele><time>2014-6-1T21:53:3Z</time></trkpt>
<trkpt lat="48.1052" lon="397.736305182596"><ele></ele><time>2014-6-1T21:53:6Z</time></trkpt>
<trkpt lat="48.10515" lon="398.707214784116"><ele></ele><time>2014-6-1T21:53:9Z</time></trkpt>
<trkpt lat="48.10511" lon="399.242478242657"><ele></ele><time>2014-6-1T21:53:12Z</time></trkpt>
<trkpt lat="48.10507" lon="399.427018283396"><ele></ele><time>2014-6-1T21:53:15Z</time></trkpt>
<trkpt lat="48.10504" lon="399.674555035466"><ele></ele><time>2014-6-1T21:53:18Z</time></trkpt>
<trkpt lat="48.105" lon="399.956116502147"><ele></ele><time>2014-6-1T21:53:21Z</time></trkpt>
<trkpt lat="48.10496" lon="400.237677968828"><ele></ele><time>2014-6-1T21:53:24Z</time></trkpt>
<trkpt lat="48.10492" lon="400.542973296382"><ele></ele><time>2014-6-1T21:53:27Z</time></trkpt>
<trkpt lat="48.10488" lon="401.144895529647"><ele></ele><time>2014-6-1T21:53:30Z</time></trkpt>
<trkpt lat="48.10485" lon="401.67895375448"><ele></ele><time>2014-6-1T21:53:33Z</time></trkpt>
<trkpt lat="48.10482" lon="401.939516316912"><ele></ele><time>2014-6-1T21:53:36Z</time></trkpt>
<trkpt lat="48.1048" lon="402.211389547417"><ele></ele><time>2014-6-1T21:53:39Z</time></trkpt>
<trkpt lat="48.10478" lon="402.547835567366"><ele></ele><time>2014-6-1T21:53:42Z</time></trkpt>
<trkpt lat="48.10476" lon="402.877930925324"><ele></ele><time>2014-6-1T21:53:45Z</time></trkpt>
<trkpt lat="48.10473" lon="403.203158987595"><ele></ele><time>2014-6-1T21:53:48Z</time></trkpt>
<trkpt lat="48.10472" lon="403.489587748548"><ele></ele><time>2014-6-1T21:53:51Z</time></trkpt>
<trkpt lat="48.10471" lon="403.873084294884"><ele></ele><time>2014-6-1T21:53:54Z</time></trkpt>
<trkpt lat="48.1047" lon="404.159513057252"><ele></ele><time>2014-6-1T21:53:57Z</time></trkpt>
<trkpt lat="48.10469" lon="404.543009602173"><ele></ele><time>2014-6-1T21:54:0Z</time></trkpt>
<trkpt lat="48.10468" lon="404.926506147094"><ele></ele><time>2014-6-1T21:54:3Z</time></trkpt>
<trkpt lat="48.10468" lon="405.374343705475"><ele></ele><time>2014-6-1T21:54:6Z</time></trkpt>
<trkpt lat="48.10467" lon="405.716630480249"><ele></ele><time>2014-6-1T21:54:9Z</time></trkpt>
<trkpt lat="48.10467" lon="406.066148665756"><ele></ele><time>2014-6-1T21:54:12Z</time></trkpt>
<trkpt lat="48.10467" lon="406.459333446854"><ele></ele><time>2014-6-1T21:54:15Z</time></trkpt>
<trkpt lat="48.10467" lon="406.808897987559"><ele></ele><time>2014-6-1T21:54:18Z</time></trkpt>
<trkpt lat="48.10466" lon="407.121378370651"><ele></ele><time>2014-6-1T21:54:21Z</time></trkpt>
<trkpt lat="48.10465" lon="407.48183638124"><ele></ele><time>2014-6-1T21:54:24Z</time></trkpt>
<trkpt lat="48.10464" lon="407.754868493085"><ele></ele><time>2014-6-1T21:54:27Z</time></trkpt>
<trkpt lat="48.10462" lon="408.040694637891"><ele></ele><time>2014-6-1T21:54:30Z</time></trkpt>
<trkpt lat="48.10459" lon="408.242015258536"><ele></ele><time>2014-6-1T21:54:33Z</time></trkpt>
<trkpt lat="48.10456" lon="408.39735152374"><ele></ele><time>2014-6-1T21:54:36Z</time></trkpt>
<trkpt lat="48.10453" lon="408.552734144141"><ele></ele><time>2014-6-1T21:54:39Z</time></trkpt>
<trkpt lat="48.1045" lon="408.669224754244"><ele></ele><time>2014-6-1T21:54:42Z</time></trkpt>
<trkpt lat="48.10447" lon="408.785761719545"><ele></ele><time>2014-6-1T21:54:45Z</time></trkpt>
<trkpt lat="48.10442" lon="408.902252329648"><ele></ele><time>2014-6-1T21:54:48Z</time></trkpt>
<trkpt lat="48.10437" lon="409.000015440157"><ele></ele><time>2014-6-1T21:54:51Z</time></trkpt>
<trkpt lat="48.10434" lon="408.99996908496"><ele></ele><time>2014-6-1T21:54:54Z</time></trkpt>
<trkpt lat="48.10428" lon="408.99996908496"><ele></ele><time>2014-6-1T21:54:57Z</time></trkpt>
<trkpt lat="48.10424" lon="408.99996908496"><ele></ele><time>2014-6-1T21:55:0Z</time></trkpt>
<trkpt lat="48.10419" lon="408.99996908496"><ele></ele><time>2014-6-1T21:55:3Z</time></trkpt>
<trkpt lat="48.10415" lon="408.99996908496"><ele></ele><time>2014-6-1T21:55:6Z</time></trkpt>
<trkpt lat="48.10411" lon="408.99996908496"><ele></ele><time>2014-6-1T21:55:9Z</time></trkpt>
<trkpt lat="48.10407" lon="408.99996908496"><ele></ele><time>2014-6-1T21:55:12Z</time></trkpt>
<trkpt lat="48.10405" lon="408.99996908496"><ele></ele><time>2014-6-1T21:55:15Z</time></trkpt>
<trkpt lat="48.10407" lon="409.370857016293"><ele></ele><time>2014-6-1T21:55:18Z</time></trkpt>
<trkpt lat="48.10411" lon="409.953402777205"><ele></ele><time>2014-6-1T21:55:21Z</time></trkpt>
<trkpt lat="48.10416" lon="410.14851180145"><ele></ele><time>2014-6-1T21:55:24Z</time></trkpt>
<trkpt lat="48.10422" lon="410.308761717537"><ele></ele><time>2014-6-1T21:55:27Z</time></trkpt>
<trkpt lat="48.10427" lon="410.468918923231"><ele></ele><time>2014-6-1T21:55:30Z</time></trkpt>
<trkpt lat="48.10432" lon="410.567701848074"><ele></ele><time>2014-6-1T21:55:33Z</time></trkpt>
<trkpt lat="48.10436" lon="410.611414798861"><ele></ele><time>2014-6-1T21:55:36Z</time></trkpt>
<trkpt lat="48.10441" lon="410.669636926314"><ele></ele><time>2014-6-1T21:55:39Z</time></trkpt>
<trkpt lat="48.10445" lon="410.713349877101"><ele></ele><time>2014-6-1T21:55:42Z</time></trkpt>
<trkpt lat="48.10449" lon="410.76434059382"><ele></ele><time>2014-6-1T21:55:45Z</time></trkpt>
<trkpt lat="48.10453" lon="410.815284956756"><ele></ele><time>2014-6-1T21:55:48Z</time></trkpt>
<trkpt lat="48.10456" lon="410.86627567206"><ele></ele><time>2014-6-1T21:55:51Z</time></trkpt>
<trkpt lat="48.10459" lon="410.924497799514"><ele></ele><time>2014-6-1T21:55:54Z</time></trkpt>
<trkpt lat="48.10462" lon="410.975488516232"><ele></ele><time>2014-6-1T21:55:57Z</time></trkpt>
<trkpt lat="48.10464" lon="410.999964060257"><ele></ele><time>2014-6-1T21:56:0Z</time></trkpt>
<trkpt lat="48.10466" lon="410.999964060257"><ele></ele><time>2014-6-1T21:56:3Z</time></trkpt>
<trkpt lat="48.10469" lon="410.999964060257"><ele></ele><time>2014-6-1T21:56:6Z</time></trkpt>
<trkpt lat="48.10472" lon="411.020406702142"><ele></ele><time>2014-6-1T21:56:9Z</time></trkpt>
<trkpt lat="48.10475" lon="411.215747502371"><ele></ele><time>2014-6-1T21:56:12Z</time></trkpt>
<trkpt lat="48.1048" lon="411.493322422109"><ele></ele><time>2014-6-1T21:56:15Z</time></trkpt>
<trkpt lat="48.10483" lon="411.616673601371"><ele></ele><time>2014-6-1T21:56:18Z</time></trkpt>
<trkpt lat="48.10488" lon="411.508665992321"><ele></ele><time>2014-6-1T21:56:21Z</time></trkpt>
<trkpt lat="48.10493" lon="411.314484072017"><ele></ele><time>2014-6-1T21:56:24Z</time></trkpt>
<trkpt lat="48.10498" lon="411.134116000424"><ele></ele><time>2014-6-1T21:56:27Z</time></trkpt>
<trkpt lat="48.10502" lon="411.134116000424"><ele></ele><time>2014-6-1T21:56:30Z</time></trkpt>
<trkpt lat="48.10506" lon="411.134116000424"><ele></ele><time>2014-6-1T21:56:33Z</time></trkpt>
<trkpt lat="48.1051" lon="411.147790783544"><ele></ele><time>2014-6-1T21:56:36Z</time></trkpt>
<trkpt lat="48.10515" lon="411.140976569583"><ele></ele><time>2014-6-1T21:56:39Z</time></trkpt>
<trkpt lat="48.1052" lon="411.120394862107"><ele></ele><time>2014-6-1T21:56:42Z</time></trkpt>
<trkpt lat="48.10525" lon="411.099813154632"><ele></ele><time>2014-6-1T21:56:45Z</time></trkpt>
<trkpt lat="48.10529" lon="411.072463588392"><ele></ele><time>2014-6-1T21:56:48Z</time></trkpt>
<trkpt lat="48.10534" lon="411.048776082716"><ele></ele><time>2014-6-1T21:56:51Z</time></trkpt>
<trkpt lat="48.10539" lon="411.178895120743"><ele></ele><time>2014-6-1T21:56:54Z</time></trkpt>
<trkpt lat="48.10543" lon="411.295432086043"><ele></ele><time>2014-6-1T21:56:57Z</time></trkpt>
<trkpt lat="48.10546" lon="411.586681788901"><ele></ele><time>2014-6-1T21:57:0Z</time></trkpt>
<trkpt lat="48.10549" lon="411.703218754201"><ele></ele><time>2014-6-1T21:57:3Z</time></trkpt>
<trkpt lat="48.10553" lon="411.936246329606"><ele></ele><time>2014-6-1T21:57:6Z</time></trkpt>
<trkpt lat="48.10556" lon="411.618017902084"><ele></ele><time>2014-6-1T21:57:9Z</time></trkpt>
<trkpt lat="48.10559" lon="411.324728570558"><ele></ele><time>2014-6-1T21:57:12Z</time></trkpt>
<trkpt lat="48.10562" lon="411.295617506831"><ele></ele><time>2014-6-1T21:57:15Z</time></trkpt>
<trkpt lat="48.10565" lon="411.418875975699"><ele></ele><time>2014-6-1T21:57:18Z</time></trkpt>
<trkpt lat="48.10567" lon="411.565821950243"><ele></ele><time>2014-6-1T21:57:21Z</time></trkpt>
<trkpt lat="48.10568" lon="411.710172033754"><ele></ele><time>2014-6-1T21:57:24Z</time></trkpt>
<trkpt lat="48.1057" lon="411.857071653101"><ele></ele><time>2014-6-1T21:57:27Z</time></trkpt>
<trkpt lat="48.10572" lon="412.003971272448"><ele></ele><time>2014-6-1T21:57:30Z</time></trkpt>
<trkpt lat="48.10573" lon="412.130613670698"><ele></ele><time>2014-6-1T21:57:33Z</time></trkpt>
<trkpt lat="48.10575" lon="412.259805604784"><ele></ele><time>2014-6-1T21:57:36Z</time></trkpt>
<trkpt lat="48.10578" lon="412.081848002021"><ele></ele><time>2014-6-1T21:57:39Z</time></trkpt>
<trkpt lat="48.1058" lon="411.773910429652"><ele></ele><time>2014-6-1T21:57:42Z</time></trkpt>
<trkpt lat="48.10581" lon="411.613150606398"><ele></ele><time>2014-6-1T21:57:45Z</time></trkpt>
<trkpt lat="48.10581" lon="411.6364209153"><ele></ele><time>2014-6-1T21:57:48Z</time></trkpt>
<trkpt lat="48.10581" lon="411.6597375794"><ele></ele><time>2014-6-1T21:57:51Z</time></trkpt>
<trkpt lat="48.10582" lon="411.639341292712"><ele></ele><time>2014-6-1T21:57:54Z</time></trkpt>
<trkpt lat="48.10583" lon="411.595674697122"><ele></ele><time>2014-6-1T21:57:57Z</time></trkpt>
<trkpt lat="48.10584" lon="411.575278410435"><ele></ele><time>2014-6-1T21:58:0Z</time></trkpt>
<trkpt lat="48.10584" lon="411.598548719337"><ele></ele><time>2014-6-1T21:58:3Z</time></trkpt>
<trkpt lat="48.10584" lon="411.575278410435"><ele></ele><time>2014-6-1T21:58:6Z</time></trkpt>
<trkpt lat="48.10584" lon="411.598595074534"><ele></ele><time>2014-6-1T21:58:9Z</time></trkpt>
<trkpt lat="48.10583" lon="411.618945006025"><ele></ele><time>2014-6-1T21:58:12Z</time></trkpt>
<trkpt lat="48.10584" lon="411.458787800331"><ele></ele><time>2014-6-1T21:58:15Z</time></trkpt>
<trkpt lat="48.10586" lon="411.208284315651"><ele></ele><time>2014-6-1T21:58:18Z</time></trkpt>
<trkpt lat="48.10588" lon="411.027684468073"><ele></ele><time>2014-6-1T21:58:21Z</time></trkpt>
<trkpt lat="48.10591" lon="410.733514387804"><ele></ele><time>2014-6-1T21:58:24Z</time></trkpt>
<trkpt lat="48.10595" lon="410.442218329749"><ele></ele><time>2014-6-1T21:58:27Z</time></trkpt>
<trkpt lat="48.10599" lon="410.127651962792"><ele></ele><time>2014-6-1T21:58:30Z</time></trkpt>
<trkpt lat="48.10603" lon="409.597070377736"><ele></ele><time>2014-6-1T21:58:33Z</time></trkpt>
<trkpt lat="48.10609" lon="409.092215927024"><ele></ele><time>2014-6-1T21:58:36Z</time></trkpt>
<trkpt lat="48.10612" lon="408.899888214601"><ele></ele><time>2014-6-1T21:58:39Z</time></trkpt>
<trkpt lat="48.10617" lon="408.492147901639"><ele></ele><time>2014-6-1T21:58:42Z</time></trkpt>
<trkpt lat="48.1062" lon="408.200851843585"><ele></ele><time>2014-6-1T21:58:45Z</time></trkpt>
<trkpt lat="48.10623" lon="407.851333658077"><ele></ele><time>2014-6-1T21:58:48Z</time></trkpt>
<trkpt lat="48.10625" lon="407.560083955219"><ele></ele><time>2014-6-1T21:58:51Z</time></trkpt>
<trkpt lat="48.10627" lon="407.268787897165"><ele></ele><time>2014-6-1T21:58:54Z</time></trkpt>
<trkpt lat="48.10629" lon="406.919269713071"><ele></ele><time>2014-6-1T21:58:57Z</time></trkpt>
<trkpt lat="48.10632" lon="406.511483042084"><ele></ele><time>2014-6-1T21:59:0Z</time></trkpt>
<trkpt lat="48.10635" lon="406.04542789269"><ele></ele><time>2014-6-1T21:59:3Z</time></trkpt>
<trkpt lat="48.1064" lon="405.668235655978"><ele></ele><time>2014-6-1T21:59:6Z</time></trkpt>
<trkpt lat="48.10646" lon="405.435208079159"><ele></ele><time>2014-6-1T21:59:9Z</time></trkpt>
<trkpt lat="48.10654" lon="405.124489193554"><ele></ele><time>2014-6-1T21:59:12Z</time></trkpt>
<trkpt lat="48.10661" lon="404.9108844457"><ele></ele><time>2014-6-1T21:59:15Z</time></trkpt>
<trkpt lat="48.10666" lon="404.833239490696"><ele></ele><time>2014-6-1T21:59:18Z</time></trkpt>
<trkpt lat="48.10672" lon="404.716748880593"><ele></ele><time>2014-6-1T21:59:21Z</time></trkpt>
<trkpt lat="48.1068" lon="404.580789087742"><ele></ele><time>2014-6-1T21:59:24Z</time></trkpt>
<trkpt lat="48.10682" lon="404.561366260192"><ele></ele><time>2014-6-1T21:59:27Z</time></trkpt>
<trkpt lat="48.10682" lon="404.561412615389"><ele></ele><time>2014-6-1T21:59:30Z</time></trkpt>
<trkpt lat="48.10687" lon="404.483721305188"><ele></ele><time>2014-6-1T21:59:33Z</time></trkpt>
<trkpt lat="48.10691" lon="404.482284294081"><ele></ele><time>2014-6-1T21:59:36Z</time></trkpt>
<trkpt lat="48.10695" lon="404.190988236026"><ele></ele><time>2014-6-1T21:59:39Z</time></trkpt>
<trkpt lat="48.10699" lon="403.899738533169"><ele></ele><time>2014-6-1T21:59:42Z</time></trkpt>
<trkpt lat="48.10701" lon="403.783201567868"><ele></ele><time>2014-6-1T21:59:45Z</time></trkpt>
<trkpt lat="48.10704" lon="403.666710957764"><ele></ele><time>2014-6-1T21:59:48Z</time></trkpt>
<trkpt lat="48.10707" lon="403.534459580675"><ele></ele><time>2014-6-1T21:59:51Z</time></trkpt>
<trkpt lat="48.10712" lon="403.089217913327"><ele></ele><time>2014-6-1T21:59:54Z</time></trkpt>
<trkpt lat="48.10717" lon="402.643976245979"><ele></ele><time>2014-6-1T21:59:57Z</time></trkpt>
<trkpt lat="48.10719" lon="402.485858668954"><ele></ele><time>2014-6-1T22:0:0Z</time></trkpt>
<trkpt lat="48.10718" lon="402.548299119336"><ele></ele><time>2014-6-1T22:0:3Z</time></trkpt>
<trkpt lat="48.10717" lon="402.643976245979"><ele></ele><time>2014-6-1T22:0:6Z</time></trkpt>
<trkpt lat="48.10717" lon="402.643976245979"><ele></ele><time>2014-6-1T22:0:9Z</time></trkpt>
<trkpt lat="48.10718" lon="402.548299119336"><ele></ele><time>2014-6-1T22:0:12Z</time></trkpt>
<trkpt lat="48.10718" lon="402.548299119336"><ele></ele><time>2014-6-1T22:0:15Z</time></trkpt>
<trkpt lat="48.10718" lon="402.58158214938"><ele></ele><time>2014-6-1T22:0:18Z</time></trkpt>
<trkpt lat="48.10718" lon="402.58158214938"><ele></ele><time>2014-6-1T22:0:21Z</time></trkpt>
<trkpt lat="48.10719" lon="402.519188055609"><ele></ele><time>2014-6-1T22:0:24Z</time></trkpt>
<trkpt lat="48.10719" lon="402.519188055609"><ele></ele><time>2014-6-1T22:0:27Z</time></trkpt>
<trkpt lat="48.10719" lon="402.552424731871"><ele></ele><time>2014-6-1T22:0:30Z</time></trkpt>
<trkpt lat="48.1072" lon="402.423418217158"><ele></ele><time>2014-6-1T22:0:33Z</time></trkpt>
<trkpt lat="48.1072" lon="402.423464572355"><ele></ele><time>2014-6-1T22:0:36Z</time></trkpt>
<trkpt lat="48.10721" lon="402.327741091929"><ele></ele><time>2014-6-1T22:0:39Z</time></trkpt>
<trkpt lat="48.10721" lon="402.294458060471"><ele></ele><time>2014-6-1T22:0:42Z</time></trkpt>
<trkpt lat="48.10721" lon="402.294458060471"><ele></ele><time>2014-6-1T22:0:45Z</time></trkpt>
<trkpt lat="48.10722" lon="402.198734578631"><ele></ele><time>2014-6-1T22:0:48Z</time></trkpt>
<trkpt lat="48.10723" lon="402.103057451988"><ele></ele><time>2014-6-1T22:0:51Z</time></trkpt>
<trkpt lat="48.10723" lon="402.136340483446"><ele></ele><time>2014-6-1T22:0:54Z</time></trkpt>
<trkpt lat="48.10723" lon="402.169623514904"><ele></ele><time>2014-6-1T22:0:57Z</time></trkpt>
<trkpt lat="48.10723" lon="402.169623514904"><ele></ele><time>2014-6-1T22:1:0Z</time></trkpt>
<trkpt lat="48.10723" lon="402.136340483446"><ele></ele><time>2014-6-1T22:1:3Z</time></trkpt>
<trkpt lat="48.10722" lon="402.232063965286"><ele></ele><time>2014-6-1T22:1:6Z</time></trkpt>
<trkpt lat="48.10722" lon="402.232017610089"><ele></ele><time>2014-6-1T22:1:9Z</time></trkpt>
<trkpt lat="48.10721" lon="402.327741091929"><ele></ele><time>2014-6-1T22:1:12Z</time></trkpt>
<trkpt lat="48.10721" lon="402.294458060471"><ele></ele><time>2014-6-1T22:1:15Z</time></trkpt>
<trkpt lat="48.10721" lon="402.327741091929"><ele></ele><time>2014-6-1T22:1:18Z</time></trkpt>
<trkpt lat="48.1072" lon="402.423464573769"><ele></ele><time>2014-6-1T22:1:21Z</time></trkpt>
<trkpt lat="48.10722" lon="402.331913059661"><ele></ele><time>2014-6-1T22:1:24Z</time></trkpt>
<trkpt lat="48.10723" lon="402.202906546363"><ele></ele><time>2014-6-1T22:1:27Z</time></trkpt>
<trkpt lat="48.10724" lon="402.107183064523"><ele></ele><time>2014-6-1T22:1:30Z</time></trkpt>
<trkpt lat="48.10728" lon="401.724381847557"><ele></ele><time>2014-6-1T22:1:33Z</time></trkpt>
<trkpt lat="48.10734" lon="401.150180022107"><ele></ele><time>2014-6-1T22:1:36Z</time></trkpt>
<trkpt lat="48.1074" lon="400.575931841461"><ele></ele><time>2014-6-1T22:1:39Z</time></trkpt>
<trkpt lat="48.10745" lon="400.134769431451"><ele></ele><time>2014-6-1T22:1:42Z</time></trkpt>
<trkpt lat="48.1075" lon="399.726982763293"><ele></ele><time>2014-6-1T22:1:45Z</time></trkpt>
<trkpt lat="48.10756" lon="399.260927612484"><ele></ele><time>2014-6-1T22:1:48Z</time></trkpt>
<trkpt lat="48.1076" lon="398.940520492117"><ele></ele><time>2014-6-1T22:1:51Z</time></trkpt>
<trkpt lat="48.10764" lon="398.613669996536"><ele></ele><time>2014-6-1T22:1:54Z</time></trkpt>
<trkpt lat="48.10769" lon="398.205836973181"><ele></ele><time>2014-6-1T22:1:57Z</time></trkpt>
<trkpt lat="48.10774" lon="397.565069083401"><ele></ele><time>2014-6-1T22:2:0Z</time></trkpt>
<trkpt lat="48.10779" lon="396.691273621046"><ele></ele><time>2014-6-1T22:2:3Z</time></trkpt>
<trkpt lat="48.10782" lon="396.108727860133"><ele></ele><time>2014-6-1T22:2:6Z</time></trkpt>
<trkpt lat="48.10784" lon="395.759163319428"><ele></ele><time>2014-6-1T22:2:9Z</time></trkpt>
<trkpt lat="48.10788" lon="395.176617558516"><ele></ele><time>2014-6-1T22:2:12Z</time></trkpt>
<trkpt lat="48.1079" lon="394.885414210856"><ele></ele><time>2014-6-1T22:2:15Z</time></trkpt>
<trkpt lat="48.10794" lon="394.244599967293"><ele></ele><time>2014-6-1T22:2:18Z</time></trkpt>
<trkpt lat="48.10798" lon="393.603785723731"><ele></ele><time>2014-6-1T22:2:21Z</time></trkpt>
<trkpt lat="48.108" lon="393.370804503523"><ele></ele><time>2014-6-1T22:2:24Z</time></trkpt>
<trkpt lat="48.10804" lon="392.846480870065"><ele></ele><time>2014-6-1T22:2:27Z</time></trkpt>
<trkpt lat="48.10808" lon="392.493903242968"><ele></ele><time>2014-6-1T22:2:30Z</time></trkpt>
<trkpt lat="48.10812" lon="392.271908203039"><ele></ele><time>2014-6-1T22:2:33Z</time></trkpt>
<trkpt lat="48.10815" lon="391.478214519715"><ele></ele><time>2014-6-1T22:2:36Z</time></trkpt>
<trkpt lat="48.10818" lon="390.724988923386"><ele></ele><time>2014-6-1T22:2:39Z</time></trkpt>
<trkpt lat="48.10821" lon="389.370582776944"><ele></ele><time>2014-6-1T22:2:42Z</time></trkpt>
<trkpt lat="48.10823" lon="388.671569583527"><ele></ele><time>2014-6-1T22:2:45Z</time></trkpt>
<trkpt lat="48.10823" lon="388.671546405929"><ele></ele><time>2014-6-1T22:2:48Z</time></trkpt>
<trkpt lat="48.10827" lon="388.089000643602"><ele></ele><time>2014-6-1T22:2:51Z</time></trkpt>
<trkpt lat="48.10831" lon="387.710348218183"><ele></ele><time>2014-6-1T22:2:54Z</time></trkpt>
<trkpt lat="48.10834" lon="387.579302076216"><ele></ele><time>2014-6-1T22:2:57Z</time></trkpt>
<trkpt lat="48.10835" lon="387.33169579135"><ele></ele><time>2014-6-1T22:3:0Z</time></trkpt>
<trkpt lat="48.10838" lon="386.588969647146"><ele></ele><time>2014-6-1T22:3:3Z</time></trkpt>
<trkpt lat="48.10841" lon="386.050113659422"><ele></ele><time>2014-6-1T22:3:6Z</time></trkpt>
<trkpt lat="48.10844" lon="385.919021163673"><ele></ele><time>2014-6-1T22:3:9Z</time></trkpt>
<trkpt lat="48.10848" lon="384.91955676079"><ele></ele><time>2014-6-1T22:3:12Z</time></trkpt>
<trkpt lat="48.1085" lon="384.582090925092"><ele></ele><time>2014-6-1T22:3:15Z</time></trkpt>
<trkpt lat="48.10851" lon="384.395673500288"><ele></ele><time>2014-6-1T22:3:18Z</time></trkpt>
<trkpt lat="48.10853" lon="384.022861828279"><ele></ele><time>2014-6-1T22:3:21Z</time></trkpt>
<trkpt lat="48.10854" lon="383.836444403476"><ele></ele><time>2014-6-1T22:3:24Z</time></trkpt>
<trkpt lat="48.10857" lon="383.090797881859"><ele></ele><time>2014-6-1T22:3:27Z</time></trkpt>
<trkpt lat="48.1086" lon="382.531568785047"><ele></ele><time>2014-6-1T22:3:30Z</time></trkpt>
<trkpt lat="48.10862" lon="382.158710757841"><ele></ele><time>2014-6-1T22:3:33Z</time></trkpt>
<trkpt lat="48.10865" lon="381.599504838626"><ele></ele><time>2014-6-1T22:3:36Z</time></trkpt>
<trkpt lat="48.10866" lon="381.78592226343"><ele></ele><time>2014-6-1T22:3:39Z</time></trkpt>
<trkpt lat="48.10868" lon="381.680858209391"><ele></ele><time>2014-6-1T22:3:42Z</time></trkpt>
<trkpt lat="48.10871" lon="381.185691994856"><ele></ele><time>2014-6-1T22:3:45Z</time></trkpt>
<trkpt lat="48.10873" lon="380.8944191144"><ele></ele><time>2014-6-1T22:3:48Z</time></trkpt>
<trkpt lat="48.10876" lon="380.515766687567"><ele></ele><time>2014-6-1T22:3:51Z</time></trkpt>
<trkpt lat="48.10877" lon="380.661391538996"><ele></ele><time>2014-6-1T22:3:54Z</time></trkpt>
<trkpt lat="48.10879" lon="380.486632446242"><ele></ele><time>2014-6-1T22:3:57Z</time></trkpt>
<trkpt lat="48.10881" lon="380.428363963591"><ele></ele><time>2014-6-1T22:4:0Z</time></trkpt>
<trkpt lat="48.10882" lon="380.224516984709"><ele></ele><time>2014-6-1T22:4:3Z</time></trkpt>
<trkpt lat="48.10882" lon="380.340961238201"><ele></ele><time>2014-6-1T22:4:6Z</time></trkpt>
<trkpt lat="48.10882" lon="380.457498204916"><ele></ele><time>2014-6-1T22:4:9Z</time></trkpt>
<trkpt lat="48.10882" lon="380.341007594813"><ele></ele><time>2014-6-1T22:4:12Z</time></trkpt>
<trkpt lat="48.10882" lon="380.340984417214"><ele></ele><time>2014-6-1T22:4:15Z</time></trkpt>
<trkpt lat="48.10881" lon="380.777882149099"><ele></ele><time>2014-6-1T22:4:18Z</time></trkpt>
<trkpt lat="48.10881" lon="380.661368361397"><ele></ele><time>2014-6-1T22:4:21Z</time></trkpt>
<trkpt lat="48.1088" lon="380.981798660777"><ele></ele><time>2014-6-1T22:4:24Z</time></trkpt>
<trkpt lat="48.1088" lon="380.981775484593"><ele></ele><time>2014-6-1T22:4:27Z</time></trkpt>
<trkpt lat="48.10881" lon="380.661391538996"><ele></ele><time>2014-6-1T22:4:30Z</time></trkpt>
<trkpt lat="48.10881" lon="380.661391538996"><ele></ele><time>2014-6-1T22:4:33Z</time></trkpt>
<trkpt lat="48.10881" lon="380.777882149099"><ele></ele><time>2014-6-1T22:4:36Z</time></trkpt>
<trkpt lat="48.1088" lon="381.098266093282"><ele></ele><time>2014-6-1T22:4:39Z</time></trkpt>
<trkpt lat="48.1088" lon="380.981775483178"><ele></ele><time>2014-6-1T22:4:42Z</time></trkpt>
<trkpt lat="48.1088" lon="380.865284873075"><ele></ele><time>2014-6-1T22:4:45Z</time></trkpt>
<trkpt lat="48.1088" lon="380.748771085373"><ele></ele><time>2014-6-1T22:4:48Z</time></trkpt>
<trkpt lat="48.10879" lon="380.952641241853"><ele></ele><time>2014-6-1T22:4:51Z</time></trkpt>
<trkpt lat="48.10881" lon="380.311873353488"><ele></ele><time>2014-6-1T22:4:54Z</time></trkpt>
<trkpt lat="48.10886" lon="379.17589289539"><ele></ele><time>2014-6-1T22:4:57Z</time></trkpt>
<trkpt lat="48.1089" lon="378.436736101356"><ele></ele><time>2014-6-1T22:5:0Z</time></trkpt>
<trkpt lat="48.10892" lon="377.970727305744"><ele></ele><time>2014-6-1T22:5:3Z</time></trkpt>
<trkpt lat="48.10897" lon="376.601742448426"><ele></ele><time>2014-6-1T22:5:6Z</time></trkpt>
<trkpt lat="48.109" lon="375.815349710047"><ele></ele><time>2014-6-1T22:5:9Z</time></trkpt>
<trkpt lat="48.10904" lon="374.591989704157"><ele></ele><time>2014-6-1T22:5:12Z</time></trkpt>
<trkpt lat="48.10907" lon="373.630814695425"><ele></ele><time>2014-6-1T22:5:15Z</time></trkpt>
<trkpt lat="48.10909" lon="373.078330279778"><ele></ele><time>2014-6-1T22:5:18Z</time></trkpt>
<trkpt lat="48.10913" lon="372.26278012106"><ele></ele><time>2014-6-1T22:5:21Z</time></trkpt>
<trkpt lat="48.10918" lon="370.241438577537"><ele></ele><time>2014-6-1T22:5:24Z</time></trkpt>
<trkpt lat="48.10922" lon="368.84329630271"><ele></ele><time>2014-6-1T22:5:27Z</time></trkpt>
<trkpt lat="48.10925" lon="368.094938002068"><ele></ele><time>2014-6-1T22:5:30Z</time></trkpt>
<trkpt lat="48.10928" lon="367.461447879634"><ele></ele><time>2014-6-1T22:5:33Z</time></trkpt>
<trkpt lat="48.10932" lon="366.412893323111"><ele></ele><time>2014-6-1T22:5:36Z</time></trkpt>
<trkpt lat="48.10935" lon="365.626431050521"><ele></ele><time>2014-6-1T22:5:39Z</time></trkpt>
<trkpt lat="48.10939" lon="364.424950699038"><ele></ele><time>2014-6-1T22:5:42Z</time></trkpt>
<trkpt lat="48.10941" lon="364.053599215735"><ele></ele><time>2014-6-1T22:5:45Z</time></trkpt>
<trkpt lat="48.10945" lon="363.61670148385"><ele></ele><time>2014-6-1T22:5:48Z</time></trkpt>
<trkpt lat="48.10947" lon="364.009909442547"><ele></ele><time>2014-6-1T22:5:51Z</time></trkpt>
<trkpt lat="48.10949" lon="364.250214783883"><ele></ele><time>2014-6-1T22:5:54Z</time></trkpt>
<trkpt lat="48.10951" lon="364.49049694762"><ele></ele><time>2014-6-1T22:5:57Z</time></trkpt>
<trkpt lat="48.10953" lon="364.730779111357"><ele></ele><time>2014-6-1T22:6:0Z</time></trkpt>
<trkpt lat="48.10954" lon="364.927348325723"><ele></ele><time>2014-6-1T22:6:3Z</time></trkpt>
<trkpt lat="48.10957" lon="364.752612409152"><ele></ele><time>2014-6-1T22:6:6Z</time></trkpt>
<trkpt lat="48.1096" lon="364.577853316398"><ele></ele><time>2014-6-1T22:6:9Z</time></trkpt>
<trkpt lat="48.10963" lon="364.127883418955"><ele></ele><time>2014-6-1T22:6:12Z</time></trkpt>
<trkpt lat="48.10967" lon="363.27351078132"><ele></ele><time>2014-6-1T22:6:15Z</time></trkpt>
<trkpt lat="48.10971" lon="362.516229106667"><ele></ele><time>2014-6-1T22:6:18Z</time></trkpt>
<trkpt lat="48.10974" lon="361.729813189275"><ele></ele><time>2014-6-1T22:6:21Z</time></trkpt>
<trkpt lat="48.10978" lon="360.681212277554"><ele></ele><time>2014-6-1T22:6:24Z</time></trkpt>
<trkpt lat="48.10982" lon="359.41666568053"><ele></ele><time>2014-6-1T22:6:27Z</time></trkpt>
<trkpt lat="48.10986" lon="357.921455623149"><ele></ele><time>2014-6-1T22:6:30Z</time></trkpt>
<trkpt lat="48.10991" lon="356.076750557859"><ele></ele><time>2014-6-1T22:6:33Z</time></trkpt>
<trkpt lat="48.10995" lon="354.67863146063"><ele></ele><time>2014-6-1T22:6:36Z</time></trkpt>
<trkpt lat="48.11" lon="353.125176098198"><ele></ele><time>2014-6-1T22:6:39Z</time></trkpt>
<trkpt lat="48.11004" lon="352.115444019176"><ele></ele><time>2014-6-1T22:6:42Z</time></trkpt>
<trkpt lat="48.11007" lon="351.552344261997"><ele></ele><time>2014-6-1T22:6:45Z</time></trkpt>
<trkpt lat="48.11009" lon="351.338762693156"><ele></ele><time>2014-6-1T22:6:48Z</time></trkpt>
<trkpt lat="48.11012" lon="350.872684364749"><ele></ele><time>2014-6-1T22:6:51Z</time></trkpt>
<trkpt lat="48.11013" lon="351.008620980002"><ele></ele><time>2014-6-1T22:6:54Z</time></trkpt>
<trkpt lat="48.11014" lon="351.241648555406"><ele></ele><time>2014-6-1T22:6:57Z</time></trkpt>
<trkpt lat="48.11015" lon="351.668834873516"><ele></ele><time>2014-6-1T22:7:0Z</time></trkpt>
<trkpt lat="48.11016" lon="352.225977986463"><ele></ele><time>2014-6-1T22:7:3Z</time></trkpt>
<trkpt lat="48.11016" lon="353.041528145181"><ele></ele><time>2014-6-1T22:7:6Z</time></trkpt>
<trkpt lat="48.11017" lon="353.507560118391"><ele></ele><time>2014-6-1T22:7:9Z</time></trkpt>
<trkpt lat="48.11018" lon="353.973615269199"><ele></ele><time>2014-6-1T22:7:12Z</time></trkpt>
<trkpt lat="48.11021" lon="353.624097083691"><ele></ele><time>2014-6-1T22:7:15Z</time></trkpt>
<trkpt lat="48.11022" lon="353.766384360935"><ele></ele><time>2014-6-1T22:7:18Z</time></trkpt>
<trkpt lat="48.11024" lon="353.559246163064"><ele></ele><time>2014-6-1T22:7:21Z</time></trkpt>
<trkpt lat="48.11026" lon="353.442732375362"><ele></ele><time>2014-6-1T22:7:24Z</time></trkpt>
<trkpt lat="48.11029" lon="352.996123231117"><ele></ele><time>2014-6-1T22:7:27Z</time></trkpt>
<trkpt lat="48.11032" lon="352.439675444711"><ele></ele><time>2014-6-1T22:7:30Z</time></trkpt>
<trkpt lat="48.11034" lon="352.012489126601"><ele></ele><time>2014-6-1T22:7:33Z</time></trkpt>
<trkpt lat="48.11036" lon="351.643548113543"><ele></ele><time>2014-6-1T22:7:36Z</time></trkpt>
<trkpt lat="48.11038" lon="351.274607100485"><ele></ele><time>2014-6-1T22:7:39Z</time></trkpt>
<trkpt lat="48.11041" lon="350.575547551871"><ele></ele><time>2014-6-1T22:7:42Z</time></trkpt>
<trkpt lat="48.11044" lon="349.868514909369"><ele></ele><time>2014-6-1T22:7:45Z</time></trkpt>
<trkpt lat="48.11047" lon="348.994673090403"><ele></ele><time>2014-6-1T22:7:48Z</time></trkpt>
<trkpt lat="48.1105" lon="348.120854449034"><ele></ele><time>2014-6-1T22:7:51Z</time></trkpt>
<trkpt lat="48.11053" lon="347.322363002818"><ele></ele><time>2014-6-1T22:7:54Z</time></trkpt>
<trkpt lat="48.11055" lon="346.798062546958"><ele></ele><time>2014-6-1T22:7:57Z</time></trkpt>
<trkpt lat="48.11058" lon="346.011646629565"><ele></ele><time>2014-6-1T22:8:0Z</time></trkpt>
<trkpt lat="48.11061" lon="345.225207534574"><ele></ele><time>2014-6-1T22:8:3Z</time></trkpt>
<trkpt lat="48.11063" lon="344.700907078714"><ele></ele><time>2014-6-1T22:8:6Z</time></trkpt>
<trkpt lat="48.11065" lon="344.176629800452"><ele></ele><time>2014-6-1T22:8:9Z</time></trkpt>
<trkpt lat="48.11067" lon="343.652329344591"><ele></ele><time>2014-6-1T22:8:12Z</time></trkpt>
<trkpt lat="48.11068" lon="343.39019070546"><ele></ele><time>2014-6-1T22:8:15Z</time></trkpt>
<trkpt lat="48.1107" lon="342.8658902496"><ele></ele><time>2014-6-1T22:8:18Z</time></trkpt>
<trkpt lat="48.11072" lon="342.34158979374"><ele></ele><time>2014-6-1T22:8:21Z</time></trkpt>
<trkpt lat="48.11073" lon="342.032632405622"><ele></ele><time>2014-6-1T22:8:24Z</time></trkpt>
<trkpt lat="48.11073" lon="341.97967159303"><ele></ele><time>2014-6-1T22:8:27Z</time></trkpt>
<trkpt lat="48.11073" lon="341.894934292883"><ele></ele><time>2014-6-1T22:8:30Z</time></trkpt>
<trkpt lat="48.11076" lon="341.058176632944"><ele></ele><time>2014-6-1T22:8:33Z</time></trkpt>
<trkpt lat="48.1108" lon="339.999029912487"><ele></ele><time>2014-6-1T22:8:36Z</time></trkpt>
<trkpt lat="48.11084" lon="338.950452178365"><ele></ele><time>2014-6-1T22:8:39Z</time></trkpt>
<trkpt lat="48.11089" lon="337.637093558882"><ele></ele><time>2014-6-1T22:8:42Z</time></trkpt>
<trkpt lat="48.11094" lon="336.3237117618"><ele></ele><time>2014-6-1T22:8:45Z</time></trkpt>
<trkpt lat="48.11099" lon="334.999760979799"><ele></ele><time>2014-6-1T22:8:48Z</time></trkpt>
<trkpt lat="48.11103" lon="333.951183245676"><ele></ele><time>2014-6-1T22:8:51Z</time></trkpt>
<trkpt lat="48.11106" lon="333.156817411995"><ele></ele><time>2014-6-1T22:8:54Z</time></trkpt>
<trkpt lat="48.1111" lon="332.155081604459"><ele></ele><time>2014-6-1T22:8:57Z</time></trkpt>
<trkpt lat="48.11114" lon="331.397776752207"><ele></ele><time>2014-6-1T22:9:0Z</time></trkpt>
<trkpt lat="48.11117" lon="330.844342053607"><ele></ele><time>2014-6-1T22:9:3Z</time></trkpt>
<trkpt lat="48.11121" lon="330.087060377539"><ele></ele><time>2014-6-1T22:9:6Z</time></trkpt>
<trkpt lat="48.11122" lon="329.390202699369"><ele></ele><time>2014-6-1T22:9:9Z</time></trkpt>
<trkpt lat="48.11124" lon="328.254268597883"><ele></ele><time>2014-6-1T22:9:12Z</time></trkpt>
<trkpt lat="48.11126" lon="327.330525409327"><ele></ele><time>2014-6-1T22:9:15Z</time></trkpt>
<trkpt lat="48.11128" lon="326.430377016053"><ele></ele><time>2014-6-1T22:9:18Z</time></trkpt>
<trkpt lat="48.11131" lon="325.818720191414"><ele></ele><time>2014-6-1T22:9:21Z</time></trkpt>
<trkpt lat="48.11134" lon="325.261623433664"><ele></ele><time>2014-6-1T22:9:24Z</time></trkpt>
<trkpt lat="48.11138" lon="324.999994701701"><ele></ele><time>2014-6-1T22:9:27Z</time></trkpt>
<trkpt lat="48.11143" lon="324.999994700286"><ele></ele><time>2014-6-1T22:9:30Z</time></trkpt>
<trkpt lat="48.11148" lon="324.999971524102"><ele></ele><time>2014-6-1T22:9:33Z</time></trkpt>
<trkpt lat="48.11152" lon="324.999994701701"><ele></ele><time>2014-6-1T22:9:36Z</time></trkpt>
<trkpt lat="48.11155" lon="325.000017879299"><ele></ele><time>2014-6-1T22:9:39Z</time></trkpt>
<trkpt lat="48.1116" lon="324.999994701701"><ele></ele><time>2014-6-1T22:9:42Z</time></trkpt>
<trkpt lat="48.11164" lon="324.999971524102"><ele></ele><time>2014-6-1T22:9:45Z</time></trkpt>
<trkpt lat="48.1117" lon="324.999994700286"><ele></ele><time>2014-6-1T22:9:48Z</time></trkpt>
<trkpt lat="48.11174" lon="324.999971524102"><ele></ele><time>2014-6-1T22:9:51Z</time></trkpt>
<trkpt lat="48.11178" lon="324.999994701701"><ele></ele><time>2014-6-1T22:9:54Z</time></trkpt>
<trkpt lat="48.11183" lon="325.000017879299"><ele></ele><time>2014-6-1T22:9:57Z</time></trkpt>
<trkpt lat="48.11188" lon="324.999994701701"><ele></ele><time>2014-6-1T22:10:0Z</time></trkpt>
<trkpt lat="48.11192" lon="324.999994701701"><ele></ele><time>2014-6-1T22:10:3Z</time></trkpt>
<trkpt lat="48.11196" lon="324.999994701701"><ele></ele><time>2014-6-1T22:10:6Z</time></trkpt>
<trkpt lat="48.112" lon="324.999994701701"><ele></ele><time>2014-6-1T22:10:9Z</time></trkpt>
<trkpt lat="48.11205" lon="324.999994701701"><ele></ele><time>2014-6-1T22:10:12Z</time></trkpt>
<trkpt lat="48.11209" lon="324.999994701701"><ele></ele><time>2014-6-1T22:10:15Z</time></trkpt>
<trkpt lat="48.11212" lon="324.999994701701"><ele></ele><time>2014-6-1T22:10:18Z</time></trkpt>
<trkpt lat="48.11216" lon="324.999971524102"><ele></ele><time>2014-6-1T22:10:21Z</time></trkpt>
<trkpt lat="48.11221" lon="324.999994701701"><ele></ele><time>2014-6-1T22:10:24Z</time></trkpt>
<trkpt lat="48.11225" lon="325.000017879299"><ele></ele><time>2014-6-1T22:10:27Z</time></trkpt>
<trkpt lat="48.1123" lon="324.999994701701"><ele></ele><time>2014-6-1T22:10:30Z</time></trkpt>
<trkpt lat="48.11234" lon="324.999994701701"><ele></ele><time>2014-6-1T22:10:33Z</time></trkpt>
<trkpt lat="48.11238" lon="324.999994700286"><ele></ele><time>2014-6-1T22:10:36Z</time></trkpt>
<trkpt lat="48.11243" lon="324.999994701701"><ele></ele><time>2014-6-1T22:10:39Z</time></trkpt>
<trkpt lat="48.11247" lon="324.999994701701"><ele></ele><time>2014-6-1T22:10:42Z</time></trkpt>
<trkpt lat="48.11252" lon="324.999994701701"><ele></ele><time>2014-6-1T22:10:45Z</time></trkpt>
<trkpt lat="48.11256" lon="324.999971524102"><ele></ele><time>2014-6-1T22:10:48Z</time></trkpt>
<trkpt lat="48.1126" lon="324.999994700286"><ele></ele><time>2014-6-1T22:10:51Z</time></trkpt>
<trkpt lat="48.11264" lon="324.999994701701"><ele></ele><time>2014-6-1T22:10:54Z</time></trkpt>
<trkpt lat="48.11268" lon="324.999994701701"><ele></ele><time>2014-6-1T22:10:57Z</time></trkpt>
<trkpt lat="48.11273" lon="324.999994701701"><ele></ele><time>2014-6-1T22:11:0Z</time></trkpt>
<trkpt lat="48.11277" lon="324.999994701701"><ele></ele><time>2014-6-1T22:11:3Z</time></trkpt>
<trkpt lat="48.11281" lon="324.999994701701"><ele></ele><time>2014-6-1T22:11:6Z</time></trkpt>
<trkpt lat="48.11285" lon="324.999994701701"><ele></ele><time>2014-6-1T22:11:9Z</time></trkpt>
<trkpt lat="48.11289" lon="324.999994701701"><ele></ele><time>2014-6-1T22:11:12Z</time></trkpt>
<trkpt lat="48.11294" lon="324.999994701701"><ele></ele><time>2014-6-1T22:11:15Z</time></trkpt>
<trkpt lat="48.11298" lon="324.999994701701"><ele></ele><time>2014-6-1T22:11:18Z</time></trkpt>
<trkpt lat="48.11302" lon="325.000017879299"><ele></ele><time>2014-6-1T22:11:21Z</time></trkpt>
<trkpt lat="48.11307" lon="324.999994701701"><ele></ele><time>2014-6-1T22:11:24Z</time></trkpt>
<trkpt lat="48.11311" lon="324.999994701701"><ele></ele><time>2014-6-1T22:11:27Z</time></trkpt>
<trkpt lat="48.11316" lon="324.999994701701"><ele></ele><time>2014-6-1T22:11:30Z</time></trkpt>
<trkpt lat="48.1132" lon="324.999994701701"><ele></ele><time>2014-6-1T22:11:33Z</time></trkpt>
<trkpt lat="48.11323" lon="325.000017879299"><ele></ele><time>2014-6-1T22:11:36Z</time></trkpt>
<trkpt lat="48.11328" lon="324.999994701701"><ele></ele><time>2014-6-1T22:11:39Z</time></trkpt>
<trkpt lat="48.11333" lon="325.000017879299"><ele></ele><time>2014-6-1T22:11:42Z</time></trkpt>
<trkpt lat="48.11337" lon="324.999994701701"><ele></ele><time>2014-6-1T22:11:45Z</time></trkpt>
<trkpt lat="48.11342" lon="324.999994701701"><ele></ele><time>2014-6-1T22:11:48Z</time></trkpt>
<trkpt lat="48.11346" lon="324.999994701701"><ele></ele><time>2014-6-1T22:11:51Z</time></trkpt>
<trkpt lat="48.11349" lon="324.999994701701"><ele></ele><time>2014-6-1T22:11:54Z</time></trkpt>
<trkpt lat="48.11354" lon="324.999994701701"><ele></ele><time>2014-6-1T22:11:57Z</time></trkpt>
<trkpt lat="48.11358" lon="324.999994701701"><ele></ele><time>2014-6-1T22:12:0Z</time></trkpt>
<trkpt lat="48.11362" lon="324.999994701701"><ele></ele><time>2014-6-1T22:12:3Z</time></trkpt>
<trkpt lat="48.11366" lon="324.999994701701"><ele></ele><time>2014-6-1T22:12:6Z</time></trkpt>
<trkpt lat="48.1137" lon="324.999994701701"><ele></ele><time>2014-6-1T22:12:9Z</time></trkpt>
<trkpt lat="48.11375" lon="324.999971524102"><ele></ele><time>2014-6-1T22:12:12Z</time></trkpt>
<trkpt lat="48.11379" lon="324.999994701701"><ele></ele><time>2014-6-1T22:12:15Z</time></trkpt>
<trkpt lat="48.11381" lon="324.999994701701"><ele></ele><time>2014-6-1T22:12:18Z</time></trkpt>
<trkpt lat="48.11385" lon="324.999994701701"><ele></ele><time>2014-6-1T22:12:21Z</time></trkpt>
<trkpt lat="48.11389" lon="324.999994701701"><ele></ele><time>2014-6-1T22:12:24Z</time></trkpt>
<trkpt lat="48.11392" lon="324.999994701701"><ele></ele><time>2014-6-1T22:12:27Z</time></trkpt>
<trkpt lat="48.11395" lon="324.999994701701"><ele></ele><time>2014-6-1T22:12:30Z</time></trkpt>
<trkpt lat="48.11398" lon="324.999971524102"><ele></ele><time>2014-6-1T22:12:33Z</time></trkpt>
<trkpt lat="48.11401" lon="324.999994701701"><ele></ele><time>2014-6-1T22:12:36Z</time></trkpt>
<trkpt lat="48.11406" lon="324.999994701701"><ele></ele><time>2014-6-1T22:12:39Z</time></trkpt>
<trkpt lat="48.11411" lon="324.999994701701"><ele></ele><time>2014-6-1T22:12:42Z</time></trkpt>
<trkpt lat="48.11415" lon="324.999994703115"><ele></ele><time>2014-6-1T22:12:45Z</time></trkpt>
<trkpt lat="48.11417" lon="325.080073304547"><ele></ele><time>2014-6-1T22:12:48Z</time></trkpt>
<trkpt lat="48.11419" lon="325.196610269848"><ele></ele><time>2014-6-1T22:12:51Z</time></trkpt>
<trkpt lat="48.1142" lon="325.2548555749"><ele></ele><time>2014-6-1T22:12:54Z</time></trkpt>
<trkpt lat="48.1142" lon="325.371369362602"><ele></ele><time>2014-6-1T22:12:57Z</time></trkpt>
<trkpt lat="48.11421" lon="325.481741086699"><ele></ele><time>2014-6-1T22:13:0Z</time></trkpt>
<trkpt lat="48.11423" lon="325.442918609198"><ele></ele><time>2014-6-1T22:13:3Z</time></trkpt>
<trkpt lat="48.11425" lon="325.397606404114"><ele></ele><time>2014-6-1T22:13:6Z</time></trkpt>
<trkpt lat="48.11428" lon="325.339337921463"><ele></ele><time>2014-6-1T22:13:9Z</time></trkpt>
<trkpt lat="48.1143" lon="325.294072071576"><ele></ele><time>2014-6-1T22:13:12Z</time></trkpt>
<trkpt lat="48.11431" lon="325.268182694042"><ele></ele><time>2014-6-1T22:13:15Z</time></trkpt>
<trkpt lat="48.11433" lon="325.235803588926"><ele></ele><time>2014-6-1T22:13:18Z</time></trkpt>
<trkpt lat="48.11434" lon="325.209891033793"><ele></ele><time>2014-6-1T22:13:21Z</time></trkpt>
<trkpt lat="48.11435" lon="325.184001656259"><ele></ele><time>2014-6-1T22:13:24Z</time></trkpt>
<trkpt lat="48.11437" lon="325.145179178758"><ele></ele><time>2014-6-1T22:13:27Z</time></trkpt>
<trkpt lat="48.11438" lon="325.125779528806"><ele></ele><time>2014-6-1T22:13:30Z</time></trkpt>
<trkpt lat="48.11439" lon="325.106356699841"><ele></ele><time>2014-6-1T22:13:33Z</time></trkpt>
<trkpt lat="48.1144" lon="325.080444146124"><ele></ele><time>2014-6-1T22:13:36Z</time></trkpt>
<trkpt lat="48.11443" lon="325.044263914852"><ele></ele><time>2014-6-1T22:13:39Z</time></trkpt>
<trkpt lat="48.11445" lon="325.177256975093"><ele></ele><time>2014-6-1T22:13:42Z</time></trkpt>
<trkpt lat="48.11446" lon="325.235479102547"><ele></ele><time>2014-6-1T22:13:45Z</time></trkpt>
<trkpt lat="48.11448" lon="325.351992890249"><ele></ele><time>2014-6-1T22:13:48Z</time></trkpt>
<trkpt lat="48.11449" lon="325.46852985555"><ele></ele><time>2014-6-1T22:13:51Z</time></trkpt>
<trkpt lat="48.11451" lon="325.701534253355"><ele></ele><time>2014-6-1T22:13:54Z</time></trkpt>
<trkpt lat="48.11452" lon="325.992807133811"><ele></ele><time>2014-6-1T22:13:57Z</time></trkpt>
<trkpt lat="48.11453" lon="326.284080014268"><ele></ele><time>2014-6-1T22:14:0Z</time></trkpt>
<trkpt lat="48.11454" lon="326.517107589672"><ele></ele><time>2014-6-1T22:14:3Z</time></trkpt>
<trkpt lat="48.11455" lon="326.808357292529"><ele></ele><time>2014-6-1T22:14:6Z</time></trkpt>
<trkpt lat="48.11457" lon="327.099630172986"><ele></ele><time>2014-6-1T22:14:9Z</time></trkpt>
<trkpt lat="48.11459" lon="327.390903053442"><ele></ele><time>2014-6-1T22:14:12Z</time></trkpt>
<trkpt lat="48.11461" lon="327.682175933898"><ele></ele><time>2014-6-1T22:14:15Z</time></trkpt>
<trkpt lat="48.11464" lon="327.961720949509"><ele></ele><time>2014-6-1T22:14:18Z</time></trkpt>
<trkpt lat="48.11467" lon="328.398641858992"><ele></ele><time>2014-6-1T22:14:21Z</time></trkpt>
<trkpt lat="48.11467" lon="328.922895959655"><ele></ele><time>2014-6-1T22:14:24Z</time></trkpt>
<trkpt lat="48.11467" lon="329.505441720567"><ele></ele><time>2014-6-1T22:14:27Z</time></trkpt>
<trkpt lat="48.11467" lon="329.855006261272"><ele></ele><time>2014-6-1T22:14:30Z</time></trkpt>
<trkpt lat="48.11466" lon="330.303608680404"><ele></ele><time>2014-6-1T22:14:33Z</time></trkpt>
<trkpt lat="48.11466" lon="330.628744032281"><ele></ele><time>2014-6-1T22:14:36Z</time></trkpt>
<trkpt lat="48.11464" lon="330.445270162488"><ele></ele><time>2014-6-1T22:14:39Z</time></trkpt>
<trkpt lat="48.11462" lon="330.771703459881"><ele></ele><time>2014-6-1T22:14:42Z</time></trkpt>
<trkpt lat="48.11461" lon="331.102494145794"><ele></ele><time>2014-6-1T22:14:45Z</time></trkpt>
<trkpt lat="48.11459" lon="331.918044304512"><ele></ele><time>2014-6-1T22:14:48Z</time></trkpt>
<trkpt lat="48.11457" lon="332.850131428531"><ele></ele><time>2014-6-1T22:14:51Z</time></trkpt>
<trkpt lat="48.11454" lon="333.274582790017"><ele></ele><time>2014-6-1T22:14:54Z</time></trkpt>
<trkpt lat="48.11453" lon="333.565855670473"><ele></ele><time>2014-6-1T22:14:57Z</time></trkpt>
<trkpt lat="48.11451" lon="334.754565163763"><ele></ele><time>2014-6-1T22:15:0Z</time></trkpt>
<trkpt lat="48.11451" lon="334.754541987579"><ele></ele><time>2014-6-1T22:15:3Z</time></trkpt>
<trkpt lat="48.1145" lon="334.735142337627"><ele></ele><time>2014-6-1T22:15:6Z</time></trkpt>
<trkpt lat="48.11451" lon="334.754565165177"><ele></ele><time>2014-6-1T22:15:9Z</time></trkpt>
<trkpt lat="48.1145" lon="334.735119160029"><ele></ele><time>2014-6-1T22:15:12Z</time></trkpt>
<trkpt lat="48.11451" lon="334.754541988994"><ele></ele><time>2014-6-1T22:15:15Z</time></trkpt>
<trkpt lat="48.1145" lon="334.735142339042"><ele></ele><time>2014-6-1T22:15:18Z</time></trkpt>
<trkpt lat="48.11447" lon="335.711568209007"><ele></ele><time>2014-6-1T22:15:21Z</time></trkpt>
<trkpt lat="48.11447" lon="336.061086393101"><ele></ele><time>2014-6-1T22:15:24Z</time></trkpt>
<trkpt lat="48.11446" lon="336.235868663453"><ele></ele><time>2014-6-1T22:15:27Z</time></trkpt>
<trkpt lat="48.11446" lon="336.410627756207"><ele></ele><time>2014-6-1T22:15:30Z</time></trkpt>
<trkpt lat="48.11446" lon="336.701900636663"><ele></ele><time>2014-6-1T22:15:33Z</time></trkpt>
<trkpt lat="48.11446" lon="336.934905034469"><ele></ele><time>2014-6-1T22:15:36Z</time></trkpt>
<trkpt lat="48.11444" lon="337.109687304821"><ele></ele><time>2014-6-1T22:15:39Z</time></trkpt>
<trkpt lat="48.11443" lon="337.284423221392"><ele></ele><time>2014-6-1T22:15:42Z</time></trkpt>
<trkpt lat="48.11442" lon="337.459182312731"><ele></ele><time>2014-6-1T22:15:45Z</time></trkpt>
<trkpt lat="48.11445" lon="337.692209888135"><ele></ele><time>2014-6-1T22:15:48Z</time></trkpt>
<trkpt lat="48.11446" lon="337.866968980889"><ele></ele><time>2014-6-1T22:15:51Z</time></trkpt>
<trkpt lat="48.11446" lon="338.158241861345"><ele></ele><time>2014-6-1T22:15:54Z</time></trkpt>
<trkpt lat="48.11443" lon="338.333024131698"><ele></ele><time>2014-6-1T22:15:57Z</time></trkpt>
<trkpt lat="48.1144" lon="338.566028529503"><ele></ele><time>2014-6-1T22:16:0Z</time></trkpt>
<trkpt lat="48.11441" lon="338.883816582653"><ele></ele><time>2014-6-1T22:16:3Z</time></trkpt>
<trkpt lat="48.11445" lon="339.026196570291"><ele></ele><time>2014-6-1T22:16:6Z</time></trkpt>
<trkpt lat="48.11448" lon="339.068287089182"><ele></ele><time>2014-6-1T22:16:9Z</time></trkpt>
<trkpt lat="48.1145" lon="339.107109566684"><ele></ele><time>2014-6-1T22:16:12Z</time></trkpt>
<trkpt lat="48.1145" lon="339.139465494202"><ele></ele><time>2014-6-1T22:16:15Z</time></trkpt>
<trkpt lat="48.11451" lon="339.175089463109"><ele></ele><time>2014-6-1T22:16:18Z</time></trkpt>
<trkpt lat="48.1145" lon="339.1394886718"><ele></ele><time>2014-6-1T22:16:21Z</time></trkpt>
<trkpt lat="48.1145" lon="339.139465494202"><ele></ele><time>2014-6-1T22:16:24Z</time></trkpt>
<trkpt lat="48.1145" lon="339.171844599318"><ele></ele><time>2014-6-1T22:16:27Z</time></trkpt>
</trkseg></trk></gpx>